Dados Meteorológicos "Online"
 
  Base de Dados  
 
Dinamização da Estação Meteorológica (na escola)
 
Dados relativos aos últimos 2 meses:
Data/HoraTemperaturaHumi. Rela.PressãoPrecipitaçãoVel.VentoDir.VentoVel.RajadaDir.RajadaRadiação SolarÍndice U.V.
(ºC)(%)(hPa)(mm)(km/h)(km/h)(W / m2)(0-11)
2017-05-29 14:00:0025,653,81012,6010,1W25,2NW5795,1
2017-05-29 13:00:0024,656,71012,908,8W19,8W4414,0
2017-05-29 12:00:0022,964,91013,008,1W21,4W3652,9
2017-05-29 11:00:0023,467,01013,108,2SW16,7SW3592,3
2017-05-29 10:00:0021,872,01013,205,3W17,8NW3551,7
2017-05-29 09:00:0019,585,51013,104,5NW11,6NW1250,3
2017-05-29 08:00:0018,492,31012,803,9W12,7NW470,0
2017-05-29 07:00:0017,995,41012,403,3W9,2W80
2017-05-29 06:00:0018,194,81012,30,23,8W10,1SW00
2017-05-29 05:00:0018,291,01012,403,4W8,6NW-10
2017-05-29 04:00:0018,091,01012,502,4W8,0NW00
2017-05-29 03:00:0017,891,91012,802,5W11,5NW-10
2017-05-29 02:00:0017,292,81013,202,4NW6,4NW00
2017-05-29 01:00:0017,789,61013,302,7W8,6W-10
2017-05-29 00:00:0018,487,91013,406,6W16,6SW-10
2017-05-28 23:00:0018,986,01013,106,9SW17,5SW-10
2017-05-28 22:00:0019,982,11012,608,1SW19,9SW00
2017-05-28 21:00:0020,579,21012,309,0SW20,8S70
2017-05-28 20:00:0021,177,11011,909,6SW22,7SW560,0
2017-05-28 19:00:0022,372,01011,6013,1SW25,1SW1700,5
2017-05-28 18:00:0024,563,91011,6013,9SW25,3SW4271,9
2017-05-28 17:00:0026,059,21011,9012,4SW24,1SW6923,8
2017-05-28 16:00:0025,062,51012,2012,1SW24,4S6964,9
2017-05-28 15:00:0024,463,31012,4012,5SW27,3S6025,0
2017-05-28 14:00:0023,866,01012,7014,3S24,2S5714,9
2017-05-28 13:00:0024,364,71013,1013,4S24,5S7436,1
2017-05-28 12:00:0024,064,71013,3012,1S23,7S7205,3
2017-05-28 11:00:0022,070,81013,3012,1S23,1S4533,0
2017-05-28 10:00:0019,979,71013,606,1S16,0S1720,8
2017-05-28 09:00:0017,787,61013,503,0E6,6E1020,3
2017-05-28 08:00:0016,492,41013,203,6E8,2E480,0
2017-05-28 07:00:0015,993,81012,902,8E8,0E60
2017-05-28 06:00:0016,493,31012,403,1E8,2E-10
2017-05-28 05:00:0016,492,01012,001,3NE7,2E00
2017-05-28 04:00:0016,890,11011,701,4NW7,3NW00
2017-05-28 03:00:0017,388,21011,702,4W6,4W-10
2017-05-28 02:00:0017,586,61011,803,0W8,5W00
2017-05-28 01:00:0017,784,31011,902,8W7,8W00
2017-05-28 00:00:0018,482,41011,704,6W14,0W00
2017-05-27 23:00:0018,681,21011,105,5W14,6NW-10
2017-05-27 22:00:0019,176,61010,208,1W19,0NW-10
2017-05-27 21:00:0020,172,01009,707,0W16,8NW120
2017-05-27 20:00:0020,870,31009,306,5W16,8W570,0
2017-05-27 19:00:0022,268,41009,007,0SW15,7SW1610,5
2017-05-27 18:00:0023,166,21009,408,4SW17,7SW2331,2
2017-05-27 17:00:0023,863,71009,6013,6SW25,4SW5163,3
2017-05-27 16:00:0024,362,21009,7013,4SW23,5S6124,7
2017-05-27 15:00:0025,458,31009,8011,0SW22,1SW7466,2
2017-05-27 14:00:0024,762,51010,109,8SW19,3SW6816,2
2017-05-27 13:00:0024,265,91010,5010,5SW20,1S5735,1
2017-05-27 12:00:0023,768,11010,409,6S18,7S5924,6
2017-05-27 11:00:0022,174,51010,209,2SE21,4S3122,1
2017-05-27 10:00:0021,076,01010,206,5E15,4S1660,9
2017-05-27 09:00:0019,976,21010,104,8NE9,5E1280,4
2017-05-27 08:00:0018,980,71009,804,0N8,5N480,0
2017-05-27 07:00:0018,583,41009,703,7N7,0N50
2017-05-27 06:00:0018,484,61009,502,0N5,9W-10
2017-05-27 05:00:0018,583,81009,403,0N6,2N-10
2017-05-27 04:00:0018,883,11009,505,0N8,9NW-10
2017-05-27 03:00:0018,684,21009,503,1NW8,0N-10
2017-05-27 02:00:0018,683,31009,602,8NW8,0NW00
2017-05-27 01:00:0018,782,51009,704,7NW10,2NW00
2017-05-27 00:00:0018,483,81009,706,1NW12,7NW-10
2017-05-26 23:00:0018,483,51009,405,3NW13,4NW-10
2017-05-26 22:00:0019,280,11008,907,1NW20,3NW-10
2017-05-26 21:00:0020,674,31008,407,9NW17,4NW210
2017-05-26 20:00:0022,068,61007,908,9NW20,1W410,0
2017-05-26 19:00:0023,862,41007,508,4W19,4NW1090,3
2017-05-26 18:00:0025,158,41007,807,7W18,5W2311,1
2017-05-26 17:00:0025,158,11007,908,5W19,7NW2591,6
2017-05-26 16:00:0026,753,81008,407,9NW20,5NW4663,2
2017-05-26 15:00:0026,255,61008,807,4W20,6NW5884,8
2017-05-26 14:00:0025,657,21009,107,7W19,3W5194,4
2017-05-26 13:00:0025,457,51009,506,8W16,4SW4964,0
2017-05-26 12:00:0024,461,81009,606,4NW14,7W5373,8
2017-05-26 11:00:0023,565,81009,804,5SE14,0SW4002,2
2017-05-26 10:00:0021,475,01009,803,1NW7,6NW3951,8
2017-05-26 09:00:0019,281,31009,605,2NW11,1NW890,3
2017-05-26 08:00:0018,285,01009,505,1NW19,5NW410,0
2017-05-26 07:00:0017,487,61009,404,4NW10,8W60
2017-05-26 06:00:0017,587,31008,903,3W8,0W00
2017-05-26 05:00:0018,286,01009,004,5NW11,0NW00
2017-05-26 04:00:0018,189,11009,205,6NW13,9W00
2017-05-26 03:00:0018,189,21009,103,2NW6,4NW00
2017-05-26 02:00:0018,491,61009,203,6W10,4NW-10
2017-05-26 01:00:0019,192,81009,604,2SW8,6S00
2017-05-26 00:00:0019,290,51009,402,3SW6,2S00
2017-05-25 23:00:0019,489,31009,202,6SW8,8SW-10
2017-05-25 22:00:0019,888,31008,504,0SW8,4S00
2017-05-25 21:00:0020,784,31007,805,3SW11,2S120
2017-05-25 20:00:0021,978,41007,307,1SW19,8SW600,1
2017-05-25 19:00:0024,167,91007,007,9SW16,8SW2640,6
2017-05-25 18:00:0026,557,31007,409,0S21,6S4741,9
2017-05-25 17:00:0026,954,01007,6011,9SE22,4SE6273,6
2017-05-25 16:00:0027,453,51008,6011,3S26,4SE7445,2
2017-05-25 15:00:0026,750,21009,0016,4SE35,2SE8106,5
2017-05-25 14:00:0026,352,31009,5018,0SE32,1SE8346,9
2017-05-25 13:00:0025,756,01009,9017,6SE35,3S7996,4
2017-05-25 12:00:0025,360,81010,1015,5SE29,9E7175,1
2017-05-25 11:00:0024,962,81010,1014,3SE29,6E5803,3
2017-05-25 10:00:0023,269,51010,2013,7SE25,5E4381,8
2017-05-25 09:00:0021,774,41010,2013,2SE22,6E2630,6
2017-05-25 08:00:0020,276,21009,909,7E20,5E1080,1
2017-05-25 07:00:0019,973,81009,708,2E19,9SE130
2017-05-25 06:00:0020,267,51009,509,2E19,9E-10
2017-05-25 05:00:0020,362,51009,409,1E18,3E-10
2017-05-25 04:00:0019,463,01009,508,7E18,3E-10
2017-05-25 03:00:0019,460,71010,205,3NE14,4NE-10
2017-05-25 02:00:0020,160,11010,608,4NE21,7N-10
2017-05-25 01:00:0020,163,21010,706,8E12,7E-10
2017-05-25 00:00:0020,563,71010,405,0E11,0E00
2017-05-24 23:00:0020,559,61009,902,9N10,6NW-10
2017-05-24 22:00:0021,456,61009,404,5NW13,0NW00
2017-05-24 21:00:0022,754,31009,104,2W10,1W60
2017-05-24 20:00:0023,953,21008,605,4W11,5NW640,1
2017-05-24 19:00:0026,047,91008,608,2SW18,1SW2450,6
2017-05-24 18:00:0026,645,21008,509,1SE20,1S4031,6
2017-05-24 17:00:0027,043,01009,0013,2SE28,2SE4812,8
2017-05-24 16:00:0028,239,41009,6018,0S33,4S7475,0
2017-05-24 15:00:0029,133,51009,8020,2SE37,8SE8326,3
2017-05-24 14:00:0028,734,41010,1017,9SE35,5SE8536,7
2017-05-24 13:00:0027,437,21010,2018,7SE37,8SE8186,1
2017-05-24 12:00:0026,836,31010,7020,5SE48,3SE7394,8
2017-05-24 11:00:0026,839,21010,8012,2SE33,8SE6153,3
2017-05-24 10:00:0024,840,01011,0010,4SE22,7SE4601,8
2017-05-24 09:00:0022,555,11011,104,2E12,7SE2860,7
2017-05-24 08:00:0019,165,41010,901,9NE11,9E1230,1
2017-05-24 07:00:0017,868,21010,703,3NE6,3E120
2017-05-24 06:00:0018,665,31010,404,3E14,0E-10
2017-05-24 05:00:0018,968,51010,308,4E18,1E00
2017-05-24 04:00:0018,477,11010,406,4E15,3E00
2017-05-24 03:00:0018,676,21010,604,0E9,5NE-10
2017-05-24 02:00:0019,274,21011,203,6E7,8E-10
2017-05-24 01:00:0019,672,81011,501,7NE4,5NE-10
2017-05-24 00:00:0020,370,31011,301,9N3,9N00
2017-05-23 23:00:0021,164,91010,702,0SW8,9SW-10
2017-05-23 22:00:0022,059,91009,801,9SW4,6SW-10
2017-05-23 21:00:0023,653,91009,404,3SW8,5SW110
2017-05-23 20:00:0024,850,91008,904,4S12,3SW490,1
2017-05-23 19:00:0026,547,31008,803,8S12,8S2720,7
2017-05-23 18:00:0028,443,41009,106,9S14,8SW5152,0
2017-05-23 17:00:0027,944,51009,408,5S18,8S6693,6
2017-05-23 16:00:0027,844,51009,6010,2S22,3S7905,3
2017-05-23 15:00:0027,643,41009,9013,2S25,1S8556,6
2017-05-23 14:00:0027,143,21010,3014,6S28,9S8777,1
2017-05-23 13:00:0027,142,61010,7012,7S23,9SE8366,5
2017-05-23 12:00:0026,952,31010,909,7S21,8SE7565,2
2017-05-23 11:00:0026,157,21010,908,9S17,8S6273,5
2017-05-23 10:00:0024,162,21011,004,9SE12,4S4681,9
2017-05-23 09:00:0021,468,01011,006,0SE11,8SE2920,7
2017-05-23 08:00:0016,787,41010,803,6E13,1SE1320,1
2017-05-23 07:00:0015,293,51010,602,1NE5,8NE180
2017-05-23 06:00:0015,592,71010,302,1N11,7N00
2017-05-23 05:00:0015,990,91010,602,3E5,2SE00
2017-05-23 04:00:0016,188,71010,701,8N4,5N00
2017-05-23 03:00:0016,486,91010,702,4N10,3NW00
2017-05-23 02:00:0017,086,21011,101,9NW4,3NW00
2017-05-23 01:00:0017,786,81011,301,7W5,2W-10
2017-05-23 00:00:0018,583,91011,201,9NW4,8W00
2017-05-22 23:00:0019,282,51011,401,8NE7,1NE-10
2017-05-22 22:00:0019,981,01010,905,5E12,4NE-10
2017-05-22 21:00:0020,978,81010,304,9E11,5E110
2017-05-22 20:00:0021,876,71009,805,4E11,3SE530,1
2017-05-22 19:00:0022,972,61009,709,3SE18,7SE2520,7
2017-05-22 18:00:0025,762,11010,009,9S17,7S4851,9
2017-05-22 17:00:0025,460,41010,5012,2S23,4S6463,6
2017-05-22 16:00:0025,753,61011,2013,0SW25,1S7675,3
2017-05-22 15:00:0025,754,41012,0012,7SW27,3SW8336,6
2017-05-22 14:00:0024,857,01012,5012,2SW30,6SW8637,0
2017-05-22 13:00:0023,562,01012,6010,0SW19,7SW5884,8
2017-05-22 12:00:0022,167,11012,609,5SW16,6S3422,6
2017-05-22 11:00:0023,064,11012,806,3S17,9SW4552,6
2017-05-22 10:00:0021,768,41013,203,8E8,6NE4601,9
2017-05-22 09:00:0019,576,71012,903,2N6,5N2650,6
2017-05-22 08:00:0017,287,31012,402,0NW12,3NW880,1
2017-05-22 07:00:0017,186,71011,803,1NW8,0NW100
2017-05-22 06:00:0017,387,91011,502,5NW8,4NW00
2017-05-22 05:00:0017,389,21011,303,6NW9,0NW00
2017-05-22 04:00:0017,489,71011,203,6NW8,2W-10
2017-05-22 03:00:0017,689,61011,304,4W12,8W00
2017-05-22 02:00:0017,789,91011,505,2W13,5W00
2017-05-22 01:00:0018,390,51011,508,1W17,6NW00
2017-05-22 00:00:0018,791,61011,204,5SW12,0W00
2017-05-21 23:00:0018,990,31010,706,1S12,5SW-10
2017-05-21 22:00:0019,089,21009,905,3S11,7S00
2017-05-21 21:00:0019,287,51009,405,2S12,6SW60
2017-05-21 20:00:0020,282,61009,006,1SW10,9SW620,1
2017-05-21 19:00:0020,982,21008,908,0S16,1SW1380,3
2017-05-21 18:00:0021,481,61008,908,6S19,1SW1550,6
2017-05-21 17:00:0022,079,31008,808,3S18,4S2371,5
2017-05-21 16:00:0021,780,91009,008,4S17,4S2461,8
2017-05-21 15:00:0021,579,41008,6012,4SE23,9SE2402,0
2017-05-21 14:00:0020,977,81008,6014,4SE28,3S1541,2
2017-05-21 13:00:0021,575,11008,7019,0SE34,5E2121,7
2017-05-21 12:00:0021,972,21008,4018,8SE41,8SE3722,9
2017-05-21 11:00:0021,771,21008,3017,7SE39,0SE2851,9
2017-05-21 10:00:0021,369,71007,9019,9SE39,1SE2321,2
2017-05-21 09:00:0021,362,81007,3018,1SE36,6SE1250,3
2017-05-21 08:00:0021,157,71007016,7E35,7SE460,0
2017-05-21 07:00:0021,056,71007,0015,6E35,5E80
2017-05-21 06:00:0021,055,11007,0016,3E35,0E00
2017-05-21 05:00:0021,450,21006,8015,0E39,5E00
2017-05-21 04:00:0021,845,31006,9019,1E37,0E-10
2017-05-21 03:00:0022,143,31007,6017,8E37,7E-10
2017-05-21 02:00:0021,948,61008,4015,9E36,0E-10
2017-05-21 01:00:0021,753,31009,3015,4E32,7SE00
2017-05-21 00:00:0022,151,11009,4010,3E25,7E00
2017-05-20 23:00:0022,749,51009,3010,2E21,9E-10
2017-05-20 22:00:0023,150,11009,009,7E20,0E-10
2017-05-20 21:00:0023,948,81009,0013,6SE29,7SE110
2017-05-20 20:00:0025,144,61008,7016,1SE30,9SE780,1
2017-05-20 19:00:0026,741,91008,7014,3SE29,7SE2200,7
2017-05-20 18:00:0029,338,01009,5011,7SE22,7SE4392,0
2017-05-20 17:00:0031,230,61009,9013,3SE25,2SE6023,7
2017-05-20 16:00:0030,631,71010,7013,8SE26,9SE7555,5
2017-05-20 15:00:0029,333,71011,8014,2SE28,0E8296,9
2017-05-20 14:00:0027,338,91012,6018,1SE35,5SE8877,6
2017-05-20 13:00:0027,236,71013,1014,8SE29,5S8527,0
2017-05-20 12:00:0026,033,81013,6015,1SE29,7SE7815,5
2017-05-20 11:00:0026,331,41013,8012,8S24,3S6563,8
2017-05-20 10:00:0024,730,81014,008,8E20,5E5002,1
2017-05-20 09:00:0020,844,41014,106,0E15,6E3210,8
2017-05-20 08:00:0016,156,21014,505,6NE12,4NE1540,1
2017-05-20 07:00:0015,159,71014,506,9NE14,2NE230
2017-05-20 06:00:0016,353,91014,007,2NE13,9E-10
2017-05-20 05:00:0017,251,21013,908,5NE17,8NE-10
2017-05-20 04:00:0017,551,31014,109,5NE20,3NE00
2017-05-20 03:00:0017,951,51014,508,4NE19,7NE-10
2017-05-20 02:00:0018,251,51014,908,0NE15,1NE-10
2017-05-20 01:00:0019,047,21015,208,5NE18,4NE-10
2017-05-20 00:00:0019,144,91015,308,4NE17,6NE-10
2017-05-19 23:00:0017,360,41014,805,7N10,9N-10
2017-05-19 22:00:0018,760,21014,006,0NW14,1NW00
2017-05-19 21:00:0020,754,01013,509,7NW21,7NW60
2017-05-19 20:00:0023,145,51012,9012,3NW24,7NW210,1
2017-05-19 19:00:0027,222,11013,3011,3NE24,7N2560,8
2017-05-19 18:00:0029,220,31013,6012,1NE26,5N5492,2
2017-05-19 17:00:0029,221,31014,0012,9NE29,0N6994,0
2017-05-19 16:00:0027,829,51014,606,5W21,5NE8115,8
2017-05-19 15:00:0026,733,21015,305,5S15,2SW8747,1
2017-05-19 14:00:0026,329,21016,008,1NE22,7NE9007,6
2017-05-19 13:00:0024,731,01016,9012,6NE25,5N8637,0
2017-05-19 12:00:0022,635,61017,4012,9NE29,1N7855,5
2017-05-19 11:00:0020,343,81017,7014,5NE29,8NE6573,7
2017-05-19 10:00:0017,551,01017,8018,0NE35,7NE4982,0
2017-05-19 09:00:0015,354,81018,0016,9NE34,5NE3180,7
2017-05-19 08:00:0013,257,11018,0013,2NE28,8NE1530,1
2017-05-19 07:00:0012,557,41017,8012,1NE26,1NE220
2017-05-19 06:00:0012,661,01017,7012,3NE26,0NE-10
2017-05-19 05:00:0012,762,61017,6011,1NE21,8NE00
2017-05-19 04:00:0013,061,21017,709,4NE19,1NE-10
2017-05-19 03:00:0012,963,71017,805,4NE16,7NE-10
2017-05-19 02:00:0013,462,51017,903,2NE8,4NE-10
2017-05-19 01:00:0014,158,11017,702,9N9,4NE00
2017-05-19 00:00:0015,752,41017,707,9N22,3N00
2017-05-18 23:00:0016,253,11017,3010,2N17,7N00
2017-05-18 22:00:0016,758,21016,609,4N22,7N00
2017-05-18 21:00:0017,659,31015,9013,7N30,6NW60
2017-05-18 20:00:0019,156,41015,1019,5NW38,3N250,1
2017-05-18 19:00:0020,852,11014,8020,1NW36,5NW2040,7
2017-05-18 18:00:0023,046,81014,5021,1NW37,3NW5262,1
2017-05-18 17:00:0024,045,21014,4022,3NW44,0NW6843,9
2017-05-18 16:00:0024,641,81014,4021,0NW41,3NW8035,7
2017-05-18 15:00:0024,939,91014,8019,7NW45,9NW8637,0
2017-05-18 14:00:0024,837,71015,1016,2NW37,3N8877,5
2017-05-18 13:00:0024,136,31015,7012,9N30,5N8527,0
2017-05-18 12:00:0022,539,51016,0012,9N31,7N7775,6
2017-05-18 11:00:0021,342,91016,4012,2N28,0N6493,8
2017-05-18 10:00:0019,146,71016,7017,6N37,9N4952,0
2017-05-18 09:00:0016,954,41017,0017,2N44,4N3090,7
2017-05-18 08:00:0015,257,61016,8015,6N34,5N1460,1
2017-05-18 07:00:0014,659,61016,2012,0N26,7N200
2017-05-18 06:00:0015,065,91015,2018,1N34,8N00
2017-05-18 05:00:0015,167,81014,8016,4N45,1N-10
2017-05-18 04:00:0015,564,21014,205,1NW18,0NE00
2017-05-18 03:00:0017,055,21013,709,7N25,5N00
2017-05-18 02:00:0018,252,51013,6014,8N33,8N00
2017-05-18 01:00:0019,161,61013,3016,8N34,5N-10
2017-05-18 00:00:0019,073,61012,9013,9NW31,9N00
2017-05-17 23:00:0019,376,31012,8010,8NW22,9NW00
2017-05-17 22:00:0020,372,71012,309,9NW24,7N-10
2017-05-17 21:00:0022,064,31011,6011,4NW26,2N50
2017-05-17 20:00:0024,257,41011,0015,0NW34,5NW210,1
2017-05-17 19:00:0026,947,01010,9017,4NW33,4NW1800,7
2017-05-17 18:00:0029,839,91011,2015,7NW33,4N5172,2
2017-05-17 17:00:0030,537,51011,5014,6NW32,9NW6634,0
2017-05-17 16:00:0031,037,01012,1015,2NW31,2NW7755,8
2017-05-17 15:00:0031,036,11012,7013,6NW29,4NW8317,2
2017-05-17 14:00:0030,634,71013,3012,8NW29,6NW7977,3
2017-05-17 13:00:0029,436,01014,108,2W21,1W7196,5
2017-05-17 12:00:0028,736,71014,70,27,8W21,3NW5814,7
2017-05-17 11:00:0026,239,51014,804,5NW14,0W4933,4
2017-05-17 10:00:0024,546,31014,702,4S5,8NW2941,6
2017-05-17 09:00:0022,157,41015,10,21,4NE6,1NE2490,7
2017-05-17 08:00:0018,568,11015,102,0N6,3N1270,1
2017-05-17 07:00:0016,875,01014,902,9N8,4N120
2017-05-17 06:00:0017,474,01015,103,7NE8,7NE-10
2017-05-17 05:00:0017,973,01015,202,8NE6,5NE-10
2017-05-17 04:00:0019,172,01015,303,2NE9,1E-10
2017-05-17 03:00:0019,672,61015,504,2E11,6E-10
2017-05-17 02:00:0020,274,91015,805,1E14,2E-10
2017-05-17 01:00:0020,676,41015,904,4E10,3E-10
2017-05-17 00:00:0021,472,91015,904,7SE8,8SE-10
2017-05-16 23:00:0021,969,31015,602,5NE9,3NE-10
2017-05-16 22:00:0023,061,81015,004,2W10,7NW-10
2017-05-16 21:00:0024,848,11014,504,6W11,2SW50
2017-05-16 20:00:0026,342,01014,207,9W18,8NW360,0
2017-05-16 19:00:0029,332,31014,408,9W18,3NW1570,6
2017-05-16 18:00:0032,422,91014,707,3W17,1W4782,2
2017-05-16 17:00:0031,625,81014,907,7SW16,0SW6153,9
2017-05-16 16:00:0029,832,51015,507,9SW19,9S6665,3
2017-05-16 15:00:0029,235,11015,7012,3S22,2SE8297,3
2017-05-16 14:00:0030,031,31016,2011,5S21,7S8477,8
2017-05-16 13:00:0030,330,21016,907,9S17,8S8247,3
2017-05-16 12:00:0028,833,01017,504,7S13,4S7025,5
2017-05-16 11:00:0027,939,41018,104,5SE9,2S5403,6
2017-05-16 10:00:0025,652,71018,304,0N9,6NE4502,1
2017-05-16 09:00:0021,072,71018,503,7NE8,2NE2460,7
2017-05-16 08:00:0017,586,61018,302,6N6,8N650,1
2017-05-16 07:00:0017,086,11018,101,2NE3,5N70
2017-05-16 06:00:0017,785,11017,702,5N5,3N-10
2017-05-16 05:00:0018,281,91017,602,8NE6,5E00
2017-05-16 04:00:0019,876,21017,805,5E11,8E-10
2017-05-16 03:00:0020,273,71017,909,3E19,7NE-10
2017-05-16 02:00:0019,477,01018,106,0SE18,5S-10
2017-05-16 01:00:0019,972,11018,001,7N3,9N-10
2017-05-16 00:00:0021,265,91018,102,7N5,9N00
2017-05-15 23:00:0022,260,41018,00,25,3NW18,5NW00
2017-05-15 22:00:0022,758,11017,906,0NW14,7NW00
2017-05-15 21:00:0023,656,81017,506,2NW16,0NW50
2017-05-15 20:00:0024,554,81017,109,3NW19,8NW420,0
2017-05-15 19:00:0025,949,51017,006,4W19,7NW1020,3
2017-05-15 18:00:0027,138,91017,304,6W10,0SW1961,1
2017-05-15 17:00:0028,833,21017,906,9SW14,8SW3742,9
2017-05-15 16:00:0028,536,71018,306,5SW18,6NW6825,6
2017-05-15 15:00:0027,543,11018,809,0S19,5S6436,1
2017-05-15 14:00:0027,447,11018,9011,3S26,6SE7497,3
2017-05-15 13:00:0028,145,71019,3010,8S23,0SE7967,3
2017-05-15 12:00:0028,245,61019,6010,4S18,5S6935,7
2017-05-15 11:00:0027,745,91019,807,0E13,7E5944,0
2017-05-15 10:00:0024,456,01020,108,2NE15,3NE4302,1
2017-05-15 09:00:0021,566,51020,405,5NE15,0E2970,8
2017-05-15 08:00:0018,277,61020,405,4NE15,5NE1220,1
2017-05-15 07:00:0017,380,81020,208,4NE20,0NE130
2017-05-15 06:00:0017,381,11020,208,0NE16,6NE00
2017-05-15 05:00:0017,182,11020,5010,0NE20,8NE-10
2017-05-15 04:00:0015,284,21020,603,5N9,7NE-10
2017-05-15 03:00:0015,282,11020,502,8NE5,6NE-10
2017-05-15 02:00:0015,580,41020,703,6N9,5N00
2017-05-15 01:00:0016,078,41021,102,7N5,8NW-10
2017-05-15 00:00:0016,677,31021,002,8N7,1NW-10
2017-05-14 23:00:0017,376,01020,603,5NW7,3NW-10
2017-05-14 22:00:0018,371,81019,905,7NW19,7NW00
2017-05-14 21:00:0019,666,91019,408,7NW19,6NW70
2017-05-14 20:00:0021,558,01019,1010,0NW23,2NW370,1
2017-05-14 19:00:0023,452,61018,909,7NW24,9W1750,6
2017-05-14 18:00:0024,556,91019,2012,3SW24,2SW4762,0
2017-05-14 17:00:0025,157,51019,7012,0SW24,5SW6463,7
2017-05-14 16:00:0024,562,51020,2011,7SW21,7SW7535,5
2017-05-14 15:00:0023,665,21020,6013,4SW23,5SW8146,9
2017-05-14 14:00:0023,665,51021,0012,1SW24,1SW8327,2
2017-05-14 13:00:0023,364,81021,6012,2SW21,3SW8146,8
2017-05-14 12:00:0023,164,91021,7010,0SW18,3SW7335,4
2017-05-14 11:00:0021,969,21021,807,2S15,2S6163,6
2017-05-14 10:00:0019,375,81021,603,5SE7,8S4151,8
2017-05-14 09:00:0015,685,01012,803,6E7,5E2760,7
2017-05-14 08:00:0012,594,01021,502,0NE6,0NE1300,1
2017-05-14 07:00:0011,994,81020,703,4E8,0E140
2017-05-14 06:00:0012,094,81020,302,2NE9,7NE00
2017-05-14 05:00:0012,294,41020,002,1NE4,4NE-10
2017-05-14 04:00:0012,693,61019,802,5NE5,3E00
2017-05-14 03:00:0013,093,81019,602,7E4,9NE00
2017-05-14 02:00:0013,892,91019,302,5N10,4NW-10
2017-05-14 01:00:0014,491,31019,302,3NW9,2W00
2017-05-14 00:00:0014,989,81019,101,2N5,0N00
2017-05-13 23:00:0015,687,11018,503,5NW10,5NW00
2017-05-13 22:00:0016,483,41017,904,4W10,1W-10
2017-05-13 21:00:0017,778,21017,305,6W13,1W50
2017-05-13 20:00:0018,775,51016,7012,6W34,4SW320,0
2017-05-13 19:00:0020,468,51016,1013,3SW28,7W1770,5
2017-05-13 18:00:0022,758,11015,8014,9SW27,0SW4971,8
2017-05-13 17:00:0023,456,11015,8014,6SW28,8SW5993,1
2017-05-13 16:00:0024,455,51015,8013,3SW28,0SW7254,7
2017-05-13 15:00:0023,260,31015,9015,4SW29,2SW7885,9
2017-05-13 14:00:0022,862,31016,1014,6SW32,1SW8096,5
2017-05-13 13:00:0022,464,61016,4015,6SW26,6SW7415,8
2017-05-13 12:00:0020,870,21016,3010,7S22,6SW6084,5
2017-05-13 11:00:0020,968,61016,009,1S19,3S4522,4
2017-05-13 10:00:0018,977,21015,703,3SE9,4SE4751,8
2017-05-13 09:00:0014,992,11015,903,4E6,4NE1990,5
2017-05-13 08:00:0013,296,51015,603,8E6,6NE460,0
2017-05-13 07:00:0012,597,41015,102,9E6,4E70
2017-05-13 06:00:0012,297,31014,802,3E5,1E00
2017-05-13 05:00:0012,496,81014,402,0NE4,8E-10
2017-05-13 04:00:0012,896,01014,202,3E10,4E00
2017-05-13 03:00:0013,394,91013,901,4NE4,6E-10
2017-05-13 02:00:0013,793,61013,701,1NE4,0NE-10
2017-05-13 01:00:0014,291,61013,501,9W11,5SW00
2017-05-13 00:00:0014,988,81013,202,0W7,4SW-10
2017-05-12 23:00:0015,786,21012,704,0W14,7SW-10
2017-05-12 22:00:0016,581,71011,703,6W10,4W-10
2017-05-12 21:00:0017,676,01010,805,7W14,5NW50
2017-05-12 20:00:0018,969,21009,9010,1W26,5NW530,0
2017-05-12 19:00:0020,365,11009,4011,2W26,3W1420,4
2017-05-12 18:00:0022,460,91008,8013,1W32,1SW4011,6
2017-05-12 17:00:0022,965,61008,5012,6SW28,1SW5122,7
2017-05-12 16:00:0022,271,91008,6013,7SW29,2SW4733,3
2017-05-12 15:00:0021,577,01008,6014,4SW27,2SW5214,3
2017-05-12 14:00:0020,686,31008,5015,8SW29,5SW6515,2
2017-05-12 13:00:0018,993,81008,50,29,3SW23,1SW5574,2
2017-05-12 12:00:0020,280,11008,02,613,7W30,3W3832,4
2017-05-12 11:00:0020,877,81007,30,212,4SW29,6W5012,6
2017-05-12 10:00:0020,874,71006,8014,1SW27,1W4271,6
2017-05-12 09:00:0018,185,61006,309,9W23,6W2930,6
2017-05-12 08:00:0015,795,91005,905,9W18,0SW1330,1
2017-05-12 07:00:0015,495,11005,20,25,7W17,7SW30
2017-05-12 06:00:0015,094,71004,707,2SW17,4SW-10
2017-05-12 05:00:0014,996,51004,407,8SW23,1W00
2017-05-12 04:00:0015,497,61004,009,3W29,6SW00
2017-05-12 03:00:0015,598,21003,809,2SW27,4SW00
2017-05-12 02:00:0015,798,41003,809,2SW22,9SW00
2017-05-12 01:00:0015,598,41003,908,8SW21,1SW00
2017-05-12 00:00:0015,498,31003,907,3SW18,1SW00
2017-05-11 23:00:0015,598,01003,706,3SW16,5SW-10
2017-05-11 22:00:0015,597,71003,207,2SW16,1SW00
2017-05-11 21:00:0015,297,01002,607,0SW15,5SW50
2017-05-11 20:00:0015,596,41002,207,5SW15,2SW460,0
2017-05-11 19:00:0015,495,11001,90,26,7SW17,4W1120,3
2017-05-11 18:00:0017,681,31001,66,69,8W33,0W670,2
2017-05-11 17:00:0021,264,21001,2013,7SW30,8SW3872,2
2017-05-11 16:00:0023,064,81000,9017,0SW33,3SW5234,0
2017-05-11 15:00:0024,461,91001,2017,4SW36,4W8466,7
2017-05-11 14:00:0023,565,91001,9017,6SW35,9SW8767,2
2017-05-11 13:00:0023,467,01002,1014,7SW34,6SW8226,5
2017-05-11 12:00:0022,568,81002,1016,2SW32,8SW7585,1
2017-05-11 11:00:0021,574,01002,3014,7SW31,3SW6363,4
2017-05-11 10:00:0016,991,31002,4010,4SW24,5SW3271,3
2017-05-11 09:00:0015,497,01001,9010,9W30,4SW560,1
2017-05-11 08:00:0015,197,71001,60,45,1W16,6W1160,0
2017-05-11 07:00:0014,196,31001,305,3W13,0SW80
2017-05-11 06:00:0014,293,81001,10,47,2W21,7W00
2017-05-11 05:00:0013,794,81001,106,3W18,7SW00
2017-05-11 04:00:0013,894,91001,007,9W19,2W-10
2017-05-11 03:00:0014,896,51000,9010,3W21,8W-10
2017-05-11 02:00:0015,396,01001,1013,1SW29,6W00
2017-05-11 01:00:0015,697,61001,2012,1SW28,4SW00
2017-05-11 00:00:0015,198,21001,2011,2SW30,4SW00
2017-05-10 23:00:0014,798,21001,107,4SW21,6SW00
2017-05-10 22:00:0015,097,51000,80,26,6SW19,0W-10
2017-05-10 21:00:0015,796,41000,51,26,4SW17,3W10
2017-05-10 20:00:0016,688,31000,01,69,0W31,3W140
2017-05-10 19:00:0019,285,0999,9013,1SW28,8W910,3
2017-05-10 18:00:0019,984,31000,2015,9SW33,3W2611,1
2017-05-10 17:00:0018,493,61000,3011,9SW25,6SW3021,7
2017-05-10 16:00:0019,090,01000,31,818,0SW37,9W1521,1
2017-05-10 15:00:0021,175,71000,9016,6SW34,5SW2302,1
2017-05-10 14:00:0022,471,21001,2018,0SW35,0SW4373,9
2017-05-10 13:00:0022,967,91001,9015,7SW29,4SW4804,2
2017-05-10 12:00:0023,068,11002,5015,6SW29,0SW6514,9
2017-05-10 11:00:0022,272,31002,8012,4S24,5S5283,2
2017-05-10 10:00:0020,380,31003,0011,3S22,1S3911,7
2017-05-10 09:00:0018,685,71003,2010,4S18,8S1620,4
2017-05-10 08:00:0015,895,81003,502,9S14,1S710,0
2017-05-10 07:00:0014,896,51003,501,7N8,3N40
2017-05-10 06:00:0014,796,81004,003,0E11,4NE-10
2017-05-10 05:00:0014,896,11004,101,1E5,9NE-10
2017-05-10 04:00:0015,594,41004,500,5W2,3SW-10
2017-05-10 03:00:0016,491,21005,202,3NW13,8NW-10
2017-05-10 02:00:0016,990,31006,004,4W12,1W-10
2017-05-10 01:00:0017,189,71006,406,6SW19,5SW-10
2017-05-10 00:00:0017,290,01006,705,9SW11,6SW-10
2017-05-09 23:00:0017,588,21006,806,0SW14,2SW-10
2017-05-09 22:00:0017,285,11006,504,2W13,6SW-10
2017-05-09 21:00:0018,081,41006,005,4W16,4W60
2017-05-09 20:00:0019,378,71005,709,9SW20,9SW270,1
2017-05-09 19:00:0020,575,81005,7012,7SW26,6W1070,4
2017-05-09 18:00:0022,668,51005,8014,5SW30,7W3421,6
2017-05-09 17:00:0022,074,71006,0013,3SW32,7SW3612,0
2017-05-09 16:00:0022,469,31006,5014,2SW29,3SW2912,5
2017-05-09 15:00:0024,062,51007,1015,0SW34,6S7996,8
2017-05-09 14:00:0023,363,21007,6013,2SW26,6SW7086,5
2017-05-09 13:00:0023,759,31008,0015,7SW31,6SW8006,8
2017-05-09 12:00:0023,159,41008,2013,8SW31,0SW7365,3
2017-05-09 11:00:0021,964,41008,4012,2SW24,3SW5683,4
2017-05-09 10:00:0020,173,31007,907,2SW18,8SW4211,7
2017-05-09 09:00:0016,488,2989,502,7E5,9E2550,6
2017-05-09 08:00:0013,896,6984,001,3NE6,6NE1340,1
2017-05-09 07:00:0013,496,11002,003,4W11,1W90
2017-05-09 06:00:0012,693,61008,905,2W13,5W00
2017-05-09 05:00:0012,491,01008,402,0N4,6NW00
2017-05-09 04:00:0012,989,31008,401,9N7,1NW00
2017-05-09 03:00:0013,786,71008,601,4N7,1NW-10
2017-05-09 02:00:0014,386,11008,902,6NW5,7NW00
2017-05-09 01:00:0015,583,71009,201,9NE5,5E-10
2017-05-09 00:00:0016,280,81009,602,3NE6,1NE-10
2017-05-08 23:00:0017,276,71009,601,8N6,5N00
2017-05-08 22:00:0018,073,31009,402,5SE8,3SE00
2017-05-08 21:00:0019,071,41009,202,6SE6,0SE50
2017-05-08 20:00:0020,663,81009,105,3S17,6SW410,1
2017-05-08 19:00:0021,851,41009,109,4SW17,0S1840,6
2017-05-08 18:00:0024,942,51009,508,9SW16,2SW5032,0
2017-05-08 17:00:0025,939,51010,0010,3SW17,7SW6563,8
2017-05-08 16:00:0026,137,81010,6010,4S23,3SW7735,6
2017-05-08 14:00:0025,936,41011,9010,6S21,6S8687,4
2017-05-08 13:00:0025,734,81012,8011,4S22,6SE8296,8
2017-05-08 12:00:0025,135,81013,3010,5S22,0SE7495,4
2017-05-08 10:00:0021,652,51013,602,8E11,2SE4551,9
2017-05-08 09:00:0016,973,41013,102,7E10,2E2670,7
2017-05-08 08:00:0013,385,21014,003,0E7,5NE1210,1
2017-05-08 07:00:0012,387,31013,703,1E6,3E60
2017-05-08 06:00:0012,685,31013,402,4E4,5NE-10
2017-05-08 05:00:0013,182,51013,402,5E8,4E-10
2017-05-08 04:00:0013,680,61013,403,0NE7,0NE00
2017-05-08 03:00:0013,885,21013,602,1NE5,6NE-10
2017-05-08 02:00:0014,482,81013,501,7N7,3NE-10
2017-05-08 01:00:0015,281,51013,502,5NE4,0NE-10
2017-05-08 00:00:0016,277,91013,303,3E6,1NE-10
2017-05-07 23:00:0017,272,01013,202,7NE7,4E-10
2017-05-07 22:00:0018,265,71012,204,3NW10,7NW00
2017-05-07 21:00:0019,756,11012,003,9W11,7W40
2017-05-07 20:00:0021,050,61011,503,3SW12,9W180,1
2017-05-07 19:00:0022,247,01011,403,8SW10,7SW1760,6
2017-05-07 18:00:0025,443,81011,706,7SW17,8SW5102,0
2017-05-07 17:00:0025,343,61012,4010,0S20,7S6673,8
2017-05-07 16:00:0025,643,21013,2010,5S19,7S7805,5
2017-05-07 15:00:0025,145,11013,5011,9S25,9SE8416,8
2017-05-07 14:00:0025,247,31013,6012,0S27,5SW8657,2
2017-05-07 13:00:0025,246,41014,2013,2S26,5S8246,7
2017-05-07 12:00:0025,544,21014,7010,9S23,6S7415,4
2017-05-07 11:00:0024,547,41015,207,4E14,5SE6123,6
2017-05-07 10:00:0021,858,91015,606,8E14,8E4551,9
2017-05-07 09:00:0017,874,81015,405,0NE12,3NE2820,7
2017-05-07 08:00:0012,992,81015,902,8NE6,9NE1310,1
2017-05-07 07:00:0012,095,81015,502,5NE9,0N50
2017-05-07 06:00:0012,296,11015,302,9NE10,0E00
2017-05-07 05:00:0012,595,71015,301,5NE4,8NE00
2017-05-07 04:00:0012,894,91015,402,8NE5,3NE00
2017-05-07 03:00:0013,294,31015,903,8NE9,9NE00
2017-05-07 02:00:0013,593,21016,003,3N7,3N00
2017-05-07 01:00:0014,092,01016,203,3N6,4N00
2017-05-07 00:00:0014,891,71016,304,0N10,6N00
2017-05-06 23:00:0015,689,61016,104,0N8,4N00
2017-05-06 22:00:0016,386,91015,802,1W7,7NW00
2017-05-06 21:00:0017,482,21015,303,7SW11,2SW40
2017-05-06 20:00:0018,578,11014,807,7SW13,7SW260,0
2017-05-06 19:00:0019,872,41014,609,3SW18,8SW1700,5
2017-05-06 18:00:0022,860,51014,609,3SW18,4S5022,0
2017-05-06 17:00:0023,263,31014,8012,0S22,5SW6583,8
2017-05-06 16:00:0022,964,71015,2013,4S26,3S7535,5
2017-05-06 15:00:0023,163,71015,5013,1S24,4S8207,0
2017-05-06 14:00:0022,564,11015,6013,9S24,4SE8367,5
2017-05-06 13:00:0022,265,31015,7011,8S25,1SW7986,9
2017-05-06 12:00:0021,269,91016,109,4S18,7S7255,5
2017-05-06 11:00:0020,473,81016,407,6S14,5SE5373,4
2017-05-06 10:00:0018,085,51016,604,9SE12,7S3981,6
2017-05-06 09:00:0013,797,11016,603,5E7,8E2260,5
2017-05-06 08:00:0011,996,91016,20,42,9E7,9E300,0
2017-05-06 07:00:0011,097,11015,604,0E9,8E80
2017-05-06 06:00:0010,897,11015,103,2E7,8E00
2017-05-06 05:00:0011,096,81014,903,0E7,6E00
2017-05-06 04:00:0011,396,31014,702,9E6,8E00
2017-05-06 03:00:0011,795,91014,502,3E4,9E00
2017-05-06 02:00:0012,294,71014,602,0E4,5E00
2017-05-06 01:00:0012,893,01014,302,2NE5,3NE00
2017-05-06 00:00:0013,291,41013,702,4NW7,0NW00
2017-05-05 23:00:0013,990,41013,202,9W13,9W00
2017-05-05 22:00:0014,786,21012,202,9W11,0W00
2017-05-05 21:00:0015,782,21011,004,2W12,4NW30
2017-05-05 20:00:0017,183,11010,108,7W22,0W310,0
2017-05-05 19:00:0017,783,31009,8012,5SW27,6SW1450,4
2017-05-05 18:00:0017,787,21009,51,611,0W28,7SW2460,8
2017-05-05 17:00:0021,067,91009,2014,2SW28,3SW3882,6
2017-05-05 16:00:0021,168,61009,2014,7SW27,3SW5904,3
2017-05-05 15:00:0018,887,01009,2011,7SW25,4S6265,0
2017-05-05 14:00:0016,791,01009,10,88,7SW28,5W3683,3
2017-05-05 13:00:0020,574,81008,82,814,1SW38,3NW5604,7
2017-05-05 12:00:0017,989,71008,6010,8W24,8W5343,9
2017-05-05 11:00:0020,875,01008,32,616,0SW30,5SW4752,7
2017-05-05 10:00:0017,991,61008,1014,1SW28,9SW3351,3
2017-05-05 09:00:0016,097,71008,1011,4SW23,4SW2780,5
2017-05-05 08:00:0014,499,21007,806,6SW18,6SW630,0
2017-05-05 07:00:0013,699,01007,204,2SW12,4SW40
2017-05-05 06:00:0013,998,81006,704,9SW16,2SW00
2017-05-05 05:00:0014,398,61006,405,6SW14,5W00
2017-05-05 04:00:0014,498,41006,00,46,7SW20,4W00
2017-05-05 03:00:0014,498,01006,10,85,7W18,5W00
2017-05-05 02:00:0014,597,41006,20,87,5W23,9W00
2017-05-05 01:00:0014,896,61006,10,25,4W16,0W00
2017-05-05 00:00:0016,693,21005,60,812,0SW39,0SW00
2017-05-04 23:00:0018,189,31005,209,7S20,9S00
2017-05-04 22:00:0018,088,21004,809,5S20,2S00
2017-05-04 21:00:0018,186,81004,209,6S19,5SE30
2017-05-04 20:00:0018,784,41004,008,3S16,4S410,0
2017-05-04 19:00:0019,579,61003,909,7S16,9S1100,3
2017-05-04 18:00:0021,771,21004,009,2S17,8S3511,5
2017-05-04 17:00:0022,967,01004,4010,8SW19,8S5583,0
2017-05-04 16:00:0022,269,21004,7010,1SW20,7SW4853,4
2017-05-04 15:00:0022,567,11005,008,8SW21,5S5474,3
2017-05-04 14:00:0021,472,91005,20,211,6S20,4S4553,7
2017-05-04 13:00:0020,277,71005,5011,6SE22,6SE3172,4
2017-05-04 12:00:0019,878,61005,7011,7SE24,1SE2351,5
2017-05-04 11:00:0019,577,91005,5013,5SE25,5SE2671,4
2017-05-04 10:00:0018,580,91005,7011,8SE23,3SE1590,5
2017-05-04 09:00:0016,879,71005,806,9E20,3E660,1
2017-05-04 08:00:0015,378,21006,104,3E11,0E370,0
2017-05-04 07:00:0014,181,01006,103,4E7,0E30
2017-05-04 06:00:0014,082,71006,202,6E7,2E-10
2017-05-04 05:00:0014,184,41006,302,7E6,1E-10
2017-05-04 04:00:0014,783,71006,302,4E7,3E-10
2017-05-04 03:00:0014,981,11006,502,0E6,6E00
2017-05-04 02:00:0014,980,41006,901,4SE5,6E-10
2017-05-04 01:00:0015,776,31007,202,7E5,7E-10
2017-05-04 00:00:0016,670,21007,301,5NE3,2NE-10
2017-05-03 23:00:0017,865,61007,202,8E6,5NE-10
2017-05-03 22:00:0019,160,71006,804,8E11,3SE00
2017-05-03 21:00:0020,752,41006,507,6SE16,6SE20
2017-05-03 20:00:0022,542,71006,208,6SE18,6SE440,0
2017-05-03 19:00:0023,837,71006,0010,3SE26,5SE1340,5
2017-05-03 18:00:0025,531,51006,2016,2SE32,2SE4131,6
2017-05-03 17:00:0026,429,61006,6018,5SE35,7SE6143,2
2017-05-03 16:00:0026,829,51007,1018,7SE37,2SE7554,9
2017-05-03 15:00:0026,331,01007,6018,4SE35,4E7906,0
2017-05-03 14:00:0026,030,91008,1019,7SE34,5SE8576,7
2017-05-03 13:00:0025,331,01008,8018,4SE34,7SE8226,2
2017-05-03 12:00:0025,036,91009,1016,1SE34,6SE7184,7
2017-05-03 11:00:0024,438,11009,7010,1SE23,7SE6133,2
2017-05-03 10:00:0021,745,71010,207,2E16,3E4541,7
2017-05-03 09:00:0015,567,61010,704,4E11,5E2750,5
2017-05-03 08:00:0012,075,71010,802,7E13,1E1000,0
2017-05-03 07:00:0011,274,21010,602,4E9,1E40
2017-05-03 06:00:0011,870,51010,502,9E5,3E00
2017-05-03 05:00:0012,865,91010,603,0E10,4E-10
2017-05-03 04:00:0013,465,71010,705,8E11,0E-10
2017-05-03 03:00:0013,272,11011,305,1SE12,2SE00
2017-05-03 02:00:0013,272,21011,502,0E7,4NE00
2017-05-03 01:00:0014,268,41011,801,9E8,4E00
2017-05-03 00:00:0015,066,51012,001,9NE5,8N00
2017-05-02 23:00:0016,268,71012,103,0NE9,1E-10
2017-05-02 22:00:0016,758,31011,502,4NW5,8NE00
2017-05-02 21:00:0018,155,11010,903,5SW9,1SW30
2017-05-02 20:00:0019,946,31010,704,5SW9,8S200,0
2017-05-02 19:00:0021,739,91010,807,1S13,9S900,4
2017-05-02 18:00:0024,642,01011,206,4SW14,1SW4701,6
2017-05-02 17:00:0024,447,81011,908,0SW14,1SW5923,0
2017-05-02 16:00:0024,049,41012,6010,8S19,3S7174,6
2017-05-02 15:00:0024,048,61013,0010,7S19,1S8045,9
2017-05-02 14:00:0023,550,11013,3010,7S22,5S8116,3
2017-05-02 13:00:0023,349,31014,0011,3S21,3S7986,0
2017-05-02 12:00:0023,141,91014,8010,7S20,4SE7314,8
2017-05-02 11:00:0023,037,31015,407,2SE15,0SE6023,2
2017-05-02 10:00:0020,443,61015,906,5E15,8E4481,6
2017-05-02 09:00:0015,563,71016,204,1E10,7SE2700,5
2017-05-02 08:00:0012,075,91016,304,5E8,5E970,0
2017-05-02 07:00:0011,178,31016,103,3E6,6E20
2017-05-02 06:00:0011,477,11016,103,8NE8,1NE-10
2017-05-02 05:00:0011,083,01016,404,4E6,6NE00
2017-05-02 04:00:0011,681,51016,604,3E9,5E-10
2017-05-02 03:00:0011,482,31016,904,5E6,8E-10
2017-05-02 02:00:0011,680,21017,202,8N6,0NE00
2017-05-02 01:00:0012,180,71017,502,7NE6,8NE-10
2017-05-02 00:00:0012,679,61017,302,8N8,3N00
2017-05-01 23:00:0013,576,31016,804,1NW8,1NW00
2017-05-01 22:00:0014,871,21016,404,3NW11,1NW00
2017-05-01 21:00:0016,862,51015,606,7NW16,5NW20
2017-05-01 20:00:0018,755,71015,209,0NW21,4NW200,0
2017-05-01 19:00:0020,150,81015,3011,5NW22,6W770,4
2017-05-01 18:00:0023,343,41015,7010,5NW26,1W4981,7
2017-05-01 17:00:0022,947,71016,4010,2SW22,0W6533,3
2017-05-01 16:00:0021,749,91017,2014,2SW27,8SW7704,9
2017-05-01 15:00:0022,544,31017,8014,4SW26,7W8396,0
2017-05-01 14:00:0022,439,91018,0011,6S24,7W8636,5
2017-05-01 13:00:0020,836,91018,506,1NE16,5N8256,0
2017-05-01 12:00:0018,942,31019,3010,1NE21,9NE7434,7
2017-05-01 11:00:0017,448,71019,5013,9N30,8N6113,1
2017-05-01 10:00:0015,454,71019,8013,7NE33,7N4481,5
2017-05-01 09:00:0012,567,01020,208,0NE20,6NE2680,5
2017-05-01 08:00:0010,076,61019,904,0NE9,3NE940,0
2017-05-01 07:00:0010,075,41019,605,9NE14,5NE30
2017-05-01 06:00:0010,077,01019,407,3NE15,6NE-10
2017-05-01 05:00:0010,179,11019,204,3NE11,8N-10
2017-05-01 04:00:009,985,9101904,3NE11,1NE-10,0
2017-05-01 03:00:0010,286,71018,802,8NE11,8N00
2017-05-01 02:00:0011,183,91018,703,6N9,7NW00
2017-05-01 01:00:0011,682,21018,204,6NW11,6NW00
2017-05-01 00:00:0012,480,01017,906,3NW13,6NW00
2017-04-30 23:00:0013,576,61017,408,5NW19,4N00
2017-04-30 22:00:0014,473,91016,5010,4NW21,1N00
2017-04-30 21:00:0015,269,61015,309,1NW19,4NW30
2017-04-30 20:00:0016,662,31014,4013,3NW30,2NW240,0
2017-04-30 19:00:0018,058,71013,8016,7NW33,4N840,4
2017-04-30 18:00:0019,956,01013,5016,2NW36,1NW3811,4
2017-04-30 17:00:0019,362,31013,5015,3NW30,6N3101,8
2017-04-30 16:00:0020,456,51013,5013,9NW32,6NW4763,4
2017-04-30 15:00:0017,875,71014,0010,0NW28,2NW4533,4
2017-04-30 14:00:0018,573,91013,7013,3W30,4SW2181,7
2017-04-30 13:00:0019,467,21013,9015,6SW33,2W2982,2
2017-04-30 12:00:0019,566,11014,3014,4SW30,2SW4472,9
2017-04-30 11:00:0017,472,91014,3012,1W29,5SW1570,8
2017-04-30 10:00:0017,568,51014,0012,0SW26,9SW1610,6
2017-04-30 09:00:0016,271,81014,009,6W25,3W1690,4
2017-04-30 08:00:0014,176,81014,105,0W15,9W910,0
2017-04-30 07:00:0013,879,61013,904,7W14,0W20
2017-04-30 06:00:0012,284,81013,903,3W15,0W-10
2017-04-30 05:00:0011,682,31014,301,9NE5,0NE-10,0
2017-04-30 04:00:0011,681,71014,201,4E4,6NE00
2017-04-30 03:00:0010,881,91014,001,1W7,6NW00
2017-04-30 02:00:0010,981,91013,702,9W8,0NW00
2017-04-30 01:00:0011,779,11013,302,3W7,2NW-10
2017-04-30 00:00:0012,378,01013,004,1W8,8W00
2017-04-29 23:00:0013,076,11012,804,6W10,4NW00
2017-04-29 22:00:0013,573,91012,106,1NW14,5NW00
2017-04-29 21:00:0014,669,31010,708,8NW24,8NW40
2017-04-29 20:00:0016,264,11009,8013,6NW28,8NW270,0
2017-04-29 19:00:0017,958,51009,1014,3NW28,2NW620,4
2017-04-29 18:00:0021,055,31008,7014,6NW35,7NW4961,5
2017-04-29 17:00:0021,756,51008,6014,9NW31,4W5532,5
2017-04-29 16:00:0022,950,61008,5013,0W32,5NW6633,9
2017-04-29 15:00:0022,050,81008,3011,4W24,0NW5794,1
2017-04-29 14:00:0022,555,11008,6010,6W22,1NW5184,1
2017-04-29 13:00:0022,861,01009,1012,0W27,0W6894,6
2017-04-29 12:00:0021,866,31009,3010,9SW23,0SW6153,8
2017-04-29 11:00:0020,671,31009,20,27,4W17,9NW5152,5
2017-04-29 10:00:0016,796,91009,404,2NW12,6W4321,4
2017-04-29 09:00:0014,999,71009,102,6NW8,6SW2640,4
2017-04-29 08:00:0013,599,91009,303,7N13,3NW1060,0
2017-04-29 07:00:0013,099,71008,901,1E4,8NE20
2017-04-29 06:00:0013,699,61008,102,1NW7,1N00
2017-04-29 05:00:0014,399,31008,101,5N4,7N00
2017-04-29 04:00:0015,099,21008,102,3NW9,6NW00
2017-04-29 03:00:0014,999,11008,302,0N6,5N00
2017-04-29 02:00:0014,598,91008,501,8N8,3N00
2017-04-29 01:00:0014,898,41008,201,8E6,4E00
2017-04-29 00:00:0015,198,11008,204,1NE10,1NE00
2017-04-28 23:00:0015,797,71008,005,0NE11,2NE00
2017-04-28 22:00:0016,196,71007,104,8N12,4W00
2017-04-28 21:00:0017,392,51005,93,46,0SW12,0SW50
2017-04-28 20:00:0019,676,01005,00,64,0W13,8N400,0
2017-04-28 19:00:0019,776,21004,805,9SW14,0S1170,3
2017-04-28 18:00:0020,572,81005,108,4SW17,2SW2501,0
2017-04-28 17:00:0020,671,61005,008,8SW18,5SW3331,8
2017-04-28 16:00:0021,168,41005,109,1SW16,5SW2892,1
2017-04-28 15:00:0022,265,91005,2010,8SW19,7SW5364,3
2017-04-28 14:00:0023,063,81005,4010,2SW19,4SW8256,2
2017-04-28 13:00:0020,868,51005,909,0S16,1SW4243,8
2017-04-28 12:00:0020,967,31006,209,0E19,8E6034,0
2017-04-28 11:00:0019,872,41006,609,2E20,3E6183,0
2017-04-28 10:00:0016,389,81007,008,0NE15,6NE3391,2
2017-04-28 09:00:0014,097,81006,806,8NE15,4NE1340,3
2017-04-28 08:00:0013,298,71006,703,9NE11,4NE470,0
2017-04-28 07:00:0012,598,61006,204,6NE7,9NE30
2017-04-28 06:00:0012,798,41006,005,8NE11,4NE00
2017-04-28 05:00:0012,798,11006,304,8NE10,7NE10
2017-04-28 04:00:0012,697,81006,704,2NE8,5NE10
2017-04-28 03:00:0012,497,61007,203,5NE11,2NE00
2017-04-28 02:00:0012,297,31007,503,7E9,6E00
2017-04-28 01:00:0012,397,31007,706,8E13,1E00
2017-04-28 00:00:0012,697,41008,206,9E14,8E00
2017-04-27 23:00:0013,197,91008,20,28,7E18,3NE00
2017-04-27 22:00:0013,698,01007,915,9E12,1E00
2017-04-27 21:00:0013,997,61007,516,6NE15,7E00
2017-04-27 20:00:0014,297,01007,10,86,1E13,6E120
2017-04-27 19:00:0014,595,91007,02,47,5E13,7E220,0
2017-04-27 18:00:0015,093,21006,81,46,2SE12,1SE600,1
2017-04-27 17:00:0016,082,81006,70,88,2SE14,8SE940,4
2017-04-27 16:00:0017,270,21007,109,1SE16,2S1951,3
2017-04-27 15:00:0017,962,01007,609,0S23,5S2101,6
2017-04-27 14:00:0017,960,31008,107,4S13,9S2822,2
2017-04-27 13:00:0017,362,31008,807,9S12,7S3622,7
2017-04-27 12:00:0017,064,01009,004,8SE10,3SE3332,1
2017-04-27 11:00:0016,062,71002,403,2E8,8NE3111,7
2017-04-27 10:00:0014,670,81003,702,8SE8,9SE2360,8
2017-04-27 09:00:0012,880,81009,30,23,3SE14,3S1290,2
2017-04-27 08:00:0011,988,11009,00,43,9SE10,2SE280,0
2017-04-27 07:00:0011,788,11008,602,3E5,6S20
2017-04-27 06:00:0012,482,21008,40,21,7NE5,8NE-10
2017-04-27 05:00:0012,876,81008,602,7E7,1SE00
2017-04-27 04:00:0012,970,61008,502,3N7,4N-10
2017-04-27 03:00:0013,168,21008,604,3NW11,0N00
2017-04-27 02:00:0013,369,01009,206,9NW15,9NW00
2017-04-27 01:00:0013,768,21009,408,9NW19,9NW00
2017-04-27 00:00:0014,169,91009,408,9NW19,8NW00
2017-04-26 23:00:0014,570,01009,3011,0NW24,8NW00
2017-04-26 22:00:0014,969,21008,7012,7NW28,5NW00
2017-04-26 21:00:0015,466,81008,2012,2NW28,6NW10
2017-04-26 20:00:0016,563,51007,7011,9NW24,6NW320,0
2017-04-26 19:00:0018,060,81007,4012,3NW29,0N1110,2
2017-04-26 18:00:0020,452,41007,1011,5NW24,0NW3301,3
2017-04-26 17:00:0021,548,91007,5010,9NW24,5NW4512,4
2017-04-26 16:00:0022,347,61007,8011,4NW24,8NW5593,7
2017-04-26 15:00:0021,750,51008,1011,1NW23,4N6174,7
2017-04-26 14:00:0021,354,01008,607,6NW17,6NW4803,8
2017-04-26 13:00:0019,463,41009,207,7W14,5S4113,2
2017-04-26 12:00:0019,262,91009,409,4S22,3SW3442,4
2017-04-26 11:00:0018,763,31009,608,4SW16,8SW4062,2
2017-04-26 10:00:0016,768,71009,305,2S12,7SW2420,9
2017-04-26 09:00:0014,980,21009,704,7SE10,2S1040,2
2017-04-26 08:00:0013,188,31009,701,8SW5,6W690,0
2017-04-26 07:00:0012,389,21009,401,9W9,2S20
2017-04-26 06:00:0012,589,41009,303,0NW8,6N00
2017-04-26 05:00:0012,787,51009,403,2NW6,5W00
2017-04-26 04:00:0013,186,51009,404,0NW12,5NW-10
2017-04-26 03:00:0014,083,71009,605,7NW12,6N00
2017-04-26 02:00:0014,382,41009,906,6NW13,9NW00
2017-04-26 01:00:0014,481,41009,906,7NW16,5NW00
2017-04-26 00:00:0014,180,61009,806,0NW13,6NW00
2017-04-25 23:00:0014,677,51009,705,8NW11,9NW00
2017-04-25 22:00:0015,774,31009,109,7NW25,5N-10
2017-04-25 21:00:0016,470,91008,5012,7NW27,4N40
2017-04-25 20:00:0017,767,01008,1014,7NW28,4NW500,0
2017-04-25 19:00:0019,263,11008,0013,7NW30,1W1500,3
2017-04-25 18:00:0020,458,21007,7014,7NW32,3NW2300,9
2017-04-25 17:00:0022,154,01008,0015,4NW36,6NW4962,4
2017-04-25 16:00:0023,350,81008,2016,0NW33,3NW5883,6
2017-04-25 15:00:0023,649,61008,5015,0NW29,3NW7034,9
2017-04-25 14:00:0022,454,21009,0016,0NW31,4NW7615,4
2017-04-25 13:00:0023,253,51009,4012,8NW30,5NW7635,3
2017-04-25 12:00:0022,457,61009,707,4NW17,3W7034,1
2017-04-25 11:00:0020,166,41009,805,4NW13,2N4692,2
2017-04-25 10:00:0018,771,61008,702,8N10,0E3801,2
2017-04-25 09:00:0015,887,71010,403,8NE176,0N1950,3
2017-04-25 08:00:0014,193,91010,203,0W8,1SW410,0
2017-04-25 07:00:0013,792,81009,903,9W10,3W10
2017-04-25 06:00:0014,094,01009,903,3NW10,5N00
2017-04-25 05:00:0013,294,41010,004,1NW10,2NW00
2017-04-25 04:00:0013,793,51010,102,2NW6,2W00
2017-04-25 03:00:0014,093,01010,503,7W8,5W00
2017-04-25 02:00:0014,291,91010,703,6NW10,8W00
2017-04-25 01:00:0014,690,91010,804,8NW12,0NW00
2017-04-25 00:00:0015,189,61011,004,3NW10,6NW00
2017-04-24 23:00:0015,787,81010,706,3NW13,6NW00
2017-04-24 22:00:0016,584,91010,305,5NW16,1NW00
2017-04-24 21:00:0017,781,01009,806,3W18,1NW20
2017-04-24 20:00:0018,972,21009,605,7SW11,6SW400,0
2017-04-24 19:00:0020,367,91009,606,8SW14,4SW1640,3
2017-04-24 18:00:0021,866,11009,807,5SW20,2S3831,1
2017-04-24 17:00:0022,267,21010,1011,2S21,0S4962,3
2017-04-24 16:00:0022,267,31010,3014,1S26,5S6173,6
2017-04-24 15:00:0023,063,51010,6014,5S24,9S6844,4
2017-04-24 14:00:0022,862,51010,9011,3S22,3S6354,3
2017-04-24 13:00:0022,061,91011,809,1E17,5SE6734,3
2017-04-24 12:00:0021,064,21012,408,1E18,6SE5593,2
2017-04-24 11:00:0019,473,51012,60,24,3SE14,2NE2931,4
2017-04-24 10:00:0018,477,21012,802,8SE7,9SE3030,9
2017-04-24 09:00:0014,887,41012,802,8E11,9E2030,3
2017-04-24 08:00:0012,991,31013,002,3E5,1E360,0
2017-04-24 07:00:0012,190,81012,502,0NE5,2N10
2017-04-24 06:00:0012,589,11012,503,1NE8,9E00
2017-04-24 05:00:0012,588,11012,602,5E5,9E00
2017-04-24 04:00:0012,789,61012,701,6NE5,9NE00
2017-04-24 03:00:0013,489,31012,703,3N6,5N00
2017-04-24 02:00:0014,088,11013,403,3NE7,0E00
2017-04-24 01:00:0014,589,51013,302,4NE9,9NE-10
2017-04-24 00:00:0015,287,91012,802,0NE9,8NE00
2017-04-23 23:00:0015,985,11012,603,1NE7,6E-10
2017-04-23 22:00:0016,481,21011,601,6W5,3NW-10
2017-04-23 21:00:0017,079,71011,202,9SW9,3SW20
2017-04-23 20:00:0018,373,21011,105,2SW12,3SW330,0
2017-04-23 19:00:0019,568,21010,806,5SW15,4S960,4
2017-04-23 18:00:0022,158,91011,008,7S17,2SW4311,4
2017-04-23 17:00:0022,756,91011,309,0S17,8S5882,8
2017-04-23 16:00:0023,056,71011,7011,2S23,4S7164,3
2017-04-23 15:00:0022,355,51012,3012,6S25,9S7545,3
2017-04-23 14:00:0022,854,71012,8012,7S26,8SE7985,8
2017-04-23 13:00:0022,157,31013,4013,6S27,4S7605,2
2017-04-23 12:00:0021,559,61013,8013,2S26,1S6714,0
2017-04-23 11:00:0020,961,11014,1011,6SE22,5SE5522,6
2017-04-23 10:00:0019,167,81014,504,5E24,3SE3931,3
2017-04-23 09:00:0014,384,51014,803,4NE6,9NE2180,3
2017-04-23 08:00:0012,289,71014,502,3E6,8E600,0
2017-04-23 07:00:0012,289,81014,202,7NE11,0NE10
2017-04-23 06:00:0012,390,71014,103,0E8,7E-10
2017-04-23 05:00:0012,788,91014,103,3E6,3E00
2017-04-23 04:00:0013,088,91014,402,5E5,1E00
2017-04-23 03:00:0013,487,01014,501,5E4,4E00
2017-04-23 02:00:0013,885,31014,702,5NE6,9E-10
2017-04-23 01:00:0014,882,21014,902,8NE6,2NE00
2017-04-23 00:00:0015,077,81015,001,1N5,8NE-10
2017-04-22 23:00:0015,378,21014,502,9W11,4W00
2017-04-22 22:00:0016,376,21014,103,4W8,4W00
2017-04-22 21:00:0017,370,11013,403,9S7,9SW20
2017-04-22 20:00:0018,764,61013,006,4S14,1SE420,0
2017-04-22 19:00:0020,058,91012,7011,3SE22,4S1300,3
2017-04-22 18:00:0022,052,31013012,0SE22,5SE3961,3
2017-04-22 17:00:0022,150,71013,3016,7SE30,7SE5642,7
2017-04-22 16:00:0021,552,91013,9017,1SE35,0SE5853,6
2017-04-22 15:00:0020,855,31014,7019,9SE36,2SE6264,3
2017-04-22 14:00:0019,659,41015,3021,4SE40,0SE4833,7
2017-04-22 13:00:0019,261,91015,8021,6SE38,0SE4693,7
2017-04-22 12:00:0019,062,01016,2020,4SE41,0E4553,1
2017-04-22 11:00:0018,662,41016,3022,6SE41,1SE5242,4
2017-04-22 10:00:0017,068,91016,4020,6SE40,6SE1770,6
2017-04-22 09:00:0016,468,61016,4016,4E32,7SE730,1
2017-04-22 08:00:0016,268,61016,1014,8E35,3E260,0
2017-04-22 07:00:0016,168,41015,7016,7E39,0SE00
2017-04-22 06:00:0016,069,21015,2018,8E37,1E-10
2017-04-22 05:00:0016,169,61015,4020,2E42,7E00
2017-04-22 04:00:0016,368,61015,6021,3E41,0SE00
2017-04-22 03:00:0016,366,21016,0023,1SE47,3SE00
2017-04-22 02:00:0015,872,41016,5012,3E30,6E-10
2017-04-22 01:00:0015,974,81016,7011,3E21,0E00
2017-04-22 00:00:0015,573,31016,708,9E18,1E-10
2017-04-21 23:00:0015,773,41016,6010,1E23,6E00
2017-04-21 22:00:0016,172,91016,2013,3SE25,4E00
2017-04-21 21:00:0016,473,51015,4014,3SE27,3SE20
2017-04-21 20:00:0017,073,31014,9017,9SE34,6SE320,0
2017-04-21 19:00:0017,769,61014,5020,2SE39,6SE1160,3
2017-04-21 18:00:0018,665,41014,1023,6SE43,9SE3821,2
2017-04-21 17:00:0018,664,31013,8027,9SE53,1E4272,1
2017-04-21 16:00:0019,461,31013,9029,5SE58,6SE5863,4
2017-04-21 15:00:0019,260,31014,1031,1SE66,2SE6264,3
2017-04-21 14:00:0019,559,81014,5028,2SE56,4SE6544,6
2017-04-21 13:00:0019,162,01014,7028,5SE61,1E6274,3
2017-04-21 12:00:0018,563,51014,7030,7SE58,3E4883,0
2017-04-21 11:00:0018,265,11014,3030,1SE61,2E4462,1
2017-04-21 10:00:0017,468,61014,0027,4SE56,8E3031,0
2017-04-21 09:00:0016,570,21013,6026,7SE51,2SE1770,2
2017-04-21 08:00:0015,972,11013,0026,6SE50,8E380,0
2017-04-21 07:00:0015,771,71012,2025,9SE46,7E00
2017-04-21 06:00:0016,072,01011,7025,5SE54,3E00
2017-04-21 05:00:0016,270,51011,6026,2SE49,0SE00
2017-04-21 04:00:0016,271,11011,4025,8SE48,4E00
2017-04-21 03:00:0016,470,91011,2030,2SE62,8SE00
2017-04-21 02:00:0016,470,71011,4025,4SE52,8E00
2017-04-21 01:00:0016,570,31011,4025,1SE48,7SE00
2017-04-21 00:00:0016,671,51011,3020,1SE51,8E00
2017-04-20 23:00:0016,971,71010,9019,2E42,0E00
2017-04-20 22:00:0017,471,71010,1014,4SE32,2SE00
2017-04-20 21:00:0017,970,51009,3015,6SE31,8SE30
2017-04-20 20:00:0018,965,61008,6021,6SE41,1E860,0
2017-04-20 19:00:0019,661,21008,3021,1SE41,2E1590,2
2017-04-20 18:00:0020,159,11007,7022,8SE45,0E2010,8
2017-04-20 17:00:0021,753,71007,6023,5SE50,7SE6112,8
2017-04-20 16:00:0021,352,91007,9025,2SE46,9SE5373,4
2017-04-20 15:00:0022,350,01008,1024,9SE47,7SE7285,1
2017-04-20 14:00:0021,751,71008,2026,2SE48,5SE7985,8
2017-04-20 13:00:0021,153,61008,5026,0SE51,7SE7355,1
2017-04-20 12:00:0020,456,81008,7026,3SE52,3E6724,0
2017-04-20 11:00:0019,860,41008,6025,8SE54,8SE5422,6
2017-04-20 10:00:0018,864,71008,6024,3SE47,5SE3781,2
2017-04-20 09:00:0017,469,21008,5021,3SE46,0E1890,3
2017-04-20 08:00:0016,772,41008,2019,3SE48,9E300,0
2017-04-20 07:00:0016,671,71007,7016,3SE36,4SE00
2017-04-20 06:00:0016,672,71007,4016,0E33,8E-10
2017-04-20 05:00:0016,874,81007,6015,3SE35,2SE00
2017-04-20 04:00:0017,075,61007,8016,4SE37,7SE00
2017-04-20 03:00:0017,175,71008,0014,4SE26,6SE-10
2017-04-20 02:00:0017,178,71008,3012,2SE26,7SE-10
2017-04-20 01:00:0017,082,91008,309,2SE18,3SE-10
2017-04-20 00:00:0017,382,81008,209,3SE20,2E-10
2017-04-19 23:00:0017,882,61008,3010,7SE22,7SE00
2017-04-19 22:00:0017,883,31007,9010,1SE20,7SE-10
2017-04-19 21:00:0018,181,81007,1010,1SE20,4SE20
2017-04-19 20:00:0018,879,01006,6013,4SE28,1SE490,0
2017-04-19 19:00:0019,975,41006,4014,0SE26,8SE1500,3
2017-04-19 18:00:0020,773,21006,3015,8SE30,7SE2831,0
2017-04-19 17:00:0021,371,21006,7015,6SE30,4SE4472,3
2017-04-19 16:00:0021,171,81007,1017,1SE31,6SE4582,9
2017-04-19 15:00:0021,570,61007,3017,0SE33,5SE4953,7
2017-04-19 14:00:0021,669,31007,4019,3SE36,9SE6314,7
2017-04-19 13:00:0021,171,11007,7017,7SE34,1SE5914,2
2017-04-19 12:00:0020,574,41007,9016,3SE34,0SE3432,2
2017-04-19 11:00:0020,473,71007,7016,7SE29,7SE3571,8
2017-04-19 10:00:0019,871,31007,4012,6SE25,9E2741,0
2017-04-19 09:00:0017,572,51007,505,1E11,9E1590,2
2017-04-19 08:00:0015,378,01007,405,1E11,5E390,0
2017-04-19 07:00:0014,580,51007,104,6E9,4NE10
2017-04-19 06:00:0014,580,81006,902,0E7,3E-10
2017-04-19 05:00:0014,581,81006,804,0E10,7E-10
2017-04-19 04:00:0014,484,11006,603,2NE7,3E-10
2017-04-19 03:00:0015,282,21006,902,6E9,1NE-10
2017-04-19 02:00:0016,081,51007,302,7NE6,6NE-10
2017-04-19 01:00:0017,177,11007,202,5N5,3NW00
2017-04-19 00:00:0017,873,81007,303,2S10,3S-10
2017-04-18 23:00:0018,968,51007,301,9SW5,5SW-10
2017-04-18 22:00:0020,263,81006,804,2E10,2E00
2017-04-18 21:00:0020,760,71005,704,9SE13,6SE10
2017-04-18 20:00:0021,956,41005,005,0SE11,4SE250,0
2017-04-18 19:00:0023,551,31004,305,6S11,7S940,3
2017-04-18 18:00:0026,545,11004,408,6S19,5SE4251,4
2017-04-18 17:00:0027,544,41004,709,4S19,0S5882,8
2017-04-18 16:00:0027,843,21005,3011,8S27,0SE7094,4
2017-04-18 15:00:0028,043,41005,9012,2S25,3SE7745,5
2017-04-18 14:00:0029,038,51006,7010,7S20,5S7945,8
2017-04-18 13:00:0028,339,31008,009,2S17,8SW7525,2
2017-04-18 12:00:0028,237,31009,006,8SE18,8S6714,1
2017-04-18 11:00:0025,946,91009,204,4NW12,8NW5342,5
2017-04-18 10:00:0022,161,01009,404,6NW11,5NW3711,2
2017-04-18 09:00:0017,968,31009,802,4NE6,2NW1970,3
2017-04-18 08:00:0015,173,91009,902,6NE13,2NW480,0
2017-04-18 07:00:0014,774,11009,604,7E11,6SE00
2017-04-18 06:00:0014,276,11009,504,0NE6,5N-10
2017-04-18 05:00:0014,872,21009,604,5NE6,7NE-10
2017-04-18 04:00:0015,765,21009,704,2E7,8E-10
2017-04-18 03:00:0015,668,61010,205,0E9,2E-10
2017-04-18 02:00:0015,973,21011,004,6E7,7E-10
2017-04-18 01:00:0016,177,71011,404,2E8,0E-10
2017-04-18 00:00:0017,181,61011,703,6NE8,6E-10
2017-04-17 23:00:0017,780,51012,203,3E7,2E-10
2017-04-17 22:00:0018,178,71011,902,1N9,1E00
2017-04-17 21:00:0018,873,21011,301,1NE5,8NE00
2017-04-17 20:00:0020,268,71011,004,2SW12,0SW280,0
2017-04-17 19:00:0021,962,81010,905,8SW11,0SW960,3
2017-04-17 18:00:0024,254,81011,106,1S11,7SW4101,3
2017-04-17 17:00:0024,555,51011,305,3S12,9SW5752,8
2017-04-17 16:00:0024,259,61012,109,1S18,1SW7004,3
2017-04-17 15:00:0024,159,81012,6011,4S19,5S7675,5
2017-04-17 14:00:0023,855,31013,2010,3S20,3SW7915,9
2017-04-17 13:00:0023,857,01013,6011,8S22,7S7525,4
2017-04-17 12:00:0023,261,01014,309,7S18,7SW6684,1
2017-04-17 11:00:0023,057,81014,805,8S14,1S5332,6
2017-04-17 10:00:0020,162,61015,104,3E10,0E3721,2
2017-04-17 09:00:0015,574,21015,403,6E8,6E1990,3
2017-04-17 08:00:0012,679,61015,503,2NE6,4E520,0
2017-04-17 07:00:0012,976,41014,802,5E7,2E00
2017-04-17 06:00:0013,174,11014,505,3E9,7E-10
2017-04-17 05:00:0012,674,81014,504,3E10,7E-10
2017-04-17 04:00:0012,776,71014,802,4NE11,0NE00
2017-04-17 03:00:0013,476,21015,102,6NE6,0E00
2017-04-17 02:00:0013,975,21015,502,2E4,3SE-10
2017-04-17 01:00:0014,680,71015,602,9N9,1NE00
2017-04-17 00:00:0015,786,81015,403,7N7,5N00
2017-04-16 23:00:0016,984,91015,204,3NE9,8E-10
2017-04-16 22:00:0017,455,01014,404,8N13,6NW-10
2017-04-16 21:00:0019,249,51013,306,5W15,0W00
2017-04-16 20:00:0021,350,01012,608,1W21,5NW160,0
2017-04-16 19:00:0023,046,21012,609,3SW17,1SW920,4
2017-04-16 18:00:0026,238,91012,609,5SW20,7SW5181,6
2017-04-16 17:00:0027,436,71012,9010,8SW21,6SW6613,1
2017-04-16 16:00:0027,636,91013,6012,2SW21,4SW7634,6
2017-04-16 15:00:0027,041,71014,4011,2SW19,4S8575,9
2017-04-16 14:00:0026,046,71015,007,6SW17,7SW7445,6
2017-04-16 13:00:0024,451,41015,507,8SW16,0SW4523,6
2017-04-16 12:00:0025,145,51016,104,0SE9,8S5433,5
2017-04-16 11:00:0023,254,11016,603,5E8,5E4622,4
2017-04-16 10:00:0019,665,51016,502,8N6,8N3381,2
2017-04-16 09:00:0014,581,11017,102,0N5,9N1490,2
2017-04-16 08:00:0011,989,51017,002,2N7,2N430,0
2017-04-16 07:00:0012,088,61016,401,9N4,3N00
2017-04-16 06:00:0012,587,31016,201,8N4,6NE-10
2017-04-16 05:00:0013,485,31016,301,2NE8,6NE00
2017-04-16 04:00:0014,083,71016,102,0NE10,3E00
2017-04-16 03:00:0014,483,61016,002,6NE12,4NE00
2017-04-16 02:00:0014,783,31016,302,4NE7,6NW00
2017-04-16 01:00:0015,179,91016,604,2N11,2N-10
2017-04-16 00:00:0015,280,81016,503,1NW12,0W00
2017-04-15 23:00:0015,679,01016,303,1NW8,7N-10
2017-04-15 22:00:0016,775,21015,804,3NW9,1N-10
2017-04-15 21:00:0017,873,11014,905,1NW12,4NW00
2017-04-15 20:00:0019,569,31014,307,2NW18,0NW360,0
2017-04-15 19:00:0021,563,81014,009,8W22,2NW1210,3
2017-04-15 18:00:0023,658,31013,8011,7W22,7NW3301,3
2017-04-15 17:00:0024,855,11014,308,6SW19,7W4302,4
2017-04-15 16:00:0025,053,41015,2011,4SW24,0SW6834,4
2017-04-15 15:00:0024,851,21016,1011,6SW20,9SW7925,8
2017-04-15 14:00:0023,652,01016,8011,7SW20,9SW7876,0
2017-04-15 13:00:0023,850,81017,609,5SW20,1SW7975,8
2017-04-15 12:00:0022,253,21018,204,6NW14,3W6964,4
2017-04-15 11:00:0021,056,61018,504,6N12,0N5512,7
2017-04-15 10:00:0018,767,81018,706,1NE14,7E3721,2
2017-04-15 09:00:0014,587,61019,003,0E13,1NE2140,3
2017-04-15 08:00:0011,794,71018,602,4NE5,4NE600,0
2017-04-15 07:00:0011,793,41018,202,1E4,9E00
2017-04-15 06:00:0012,092,11017,802,3SW7,4N-10
2017-04-15 05:00:0012,590,81017,502,1SW5,1SW-10
2017-04-15 04:00:0013,288,61017,500,8N3,9NE00
2017-04-15 03:00:0013,885,41017,701,9N5,7N-10
2017-04-15 02:00:0014,583,61018,007,3N14,4N00
2017-04-15 01:00:0014,484,71017,805,1NW10,8NW00
2017-04-15 00:00:0015,281,11017,607,4NW16,1N-10
2017-04-14 23:00:0015,977,91017,5010,3NW19,9NW00
2017-04-14 22:00:0016,374,71016,709,5NW24,0NW00
2017-04-14 21:00:0017,471,11015,6011,5NW26,5NW00
2017-04-14 20:00:0019,762,31014,809,9NW22,6NW210,0
2017-04-14 19:00:0021,554,81014,1011,7NW24,2NW720,3
2017-04-14 18:00:0023,550,31014,0015,8NW32,5NW4371,4
2017-04-14 17:00:0025,148,21014,5016,4NW33,7NW5962,9
2017-04-14 16:00:0026,548,61015,5010,2W29,0NW7414,6
2017-04-14 15:00:0024,155,91016,409,5SW18,2SW7815,6
2017-04-14 14:00:0023,955,81017,009,8SW17,0S7535,5
2017-04-14 13:00:0023,556,31017,609,5SW18,6SW7365,1
2017-04-14 12:00:0022,057,11018,005,1S16,4S6854,1
2017-04-14 11:00:0020,661,71018,204,6N12,6NE5562,5
2017-04-14 10:00:0017,873,51018,605,8NE12,4NE3841,2
2017-04-14 09:00:0013,691,31018,801,6E5,4E1560,2
2017-04-14 08:00:0011,995,81018,401,0NW6,9NW390,0
2017-04-14 07:00:0011,695,11018,102,0E4,7N00
2017-04-14 06:00:0011,994,31017,802,5NW6,7N-10
2017-04-14 05:00:0012,292,51017,402,7NW11,0NW-10
2017-04-14 04:00:0013,290,01017,702,8N7,4NE-10
2017-04-14 03:00:0013,888,01017,603,2NW9,7NW00
2017-04-14 02:00:0014,484,71017,602,2NW7,4NW00
2017-04-14 01:00:0015,182,81017,503,5NW9,2NW-10
2017-04-14 00:00:0015,581,91017,303,7NW13,6NW-10
2017-04-13 23:00:0015,980,61017,305,6NW13,9NW-10
2017-04-13 22:00:0016,080,21016,706,6NW17,0NW00
2017-04-13 21:00:0016,776,51015,7011,9NW27,0NW00
2017-04-13 20:00:0018,668,71014,7013,0NW28,3N300,0
2017-04-13 19:00:0020,558,41014,1016,8NW37,6NW940,3
2017-04-13 18:00:0023,350,41013,9015,7NW36,1NW3991,3
2017-04-13 17:00:0024,348,81014,1013,9NW31,5NW5752,7
2017-04-13 16:00:0025,845,31014,4012,3W27,1NW6494,0
2017-04-13 15:00:0026,042,41015,008,4W19,4W7015,0
2017-04-13 14:00:0024,752,41015,8010,9S21,0SW7805,6
2017-04-13 13:00:0024,551,31016,408,3S16,2SW7445,0
2017-04-13 12:00:0022,749,31016,904,6NW16,7N6523,7
2017-04-13 11:00:0020,754,81017,202,8NE9,7W5202,3
2017-04-13 10:00:0018,163,81017,303,3N7,1NE3561,0
2017-04-13 09:00:0013,981,61017,403,9N7,9N1730,2
2017-04-13 08:00:0011,986,51017,004,0NW9,4NW240,0
2017-04-13 07:00:0011,582,41016,302,5NW8,1NW00
2017-04-13 06:00:0012,079,71015,802,0NW6,6W-10
2017-04-13 05:00:0012,180,31015,602,1NW6,8W-10
2017-04-13 04:00:0012,478,81015,802,4N7,8W00
2017-04-13 03:00:0012,977,11016,002,6NE8,9E-10
2017-04-13 02:00:0013,776,1101602,5N6,3N00
2017-04-13 01:00:0014,967,41016,003,0NW8,0NW00
2017-04-13 00:00:0015,169,41015,804,1NW10,0NW00
2017-04-12 23:00:0015,469,61015,604,5NW9,2N-10
2017-04-12 22:00:0016,459,21014,802,9NW7,1NW-10
2017-04-12 21:00:0017,850,21014,302,3NE5,4NE00
2017-04-12 20:00:0019,347,01013,903,5W12,4SW290,0
2017-04-12 19:00:0021,141,21013,405,2SW12,1SW810,3
2017-04-12 18:00:0024,835,11013,507,0S15,0SW4331,4
2017-04-12 17:00:0025,930,11013,807,4S16,3S6022,8
2017-04-12 16:00:0025,828,01014,606,7S17,5S7154,4
2017-04-12 15:00:0026,328,31015,308,1SW16,8SW7945,5
2017-04-12 14:00:0026,428,11015,7010,9SW20,8S8105,9
2017-04-12 13:00:0025,727,41016,1010,2S22,7SE7685,3
2017-04-12 12:00:0025,137,01016,609,0S18,7SE6784,0
2017-04-12 11:00:0023,347,31017,105,5E15,1E5332,4
2017-04-12 10:00:0018,861,81017,204,1E8,7E3671,1
2017-04-12 09:00:0013,278,61017,605,3E10,1E1910,2
2017-04-12 08:00:0010,884,91017,702,3NE6,9E440,0
2017-04-12 07:00:0010,586,31017,602,4NE8,1NE00
2017-04-12 06:00:0011,187,01016,903,9NW7,8W-10
2017-04-12 05:00:0012,582,71016,504,1SW11,3W-10
2017-04-12 04:00:0012,684,31016,505,9E12,5E-10
2017-04-12 03:00:0012,285,51017,103,4E8,2E-10
2017-04-12 02:00:0012,482,81017,602,9NE11,7NE-10
2017-04-12 01:00:0012,678,71017,903,1NE5,9NE-10
2017-04-12 00:00:0013,672,41017,801,2NE8,8N00
2017-04-11 23:00:0014,669,11017,302,0N12,8NE-10
2017-04-11 22:00:0015,564,31016,701,9NW3,8W-10
2017-04-11 21:00:0017,259,11015,802,1W9,5SW00
2017-04-11 20:00:0019,947,51015,601,5SW4,2W270,0
2017-04-11 19:00:0020,841,41015,604,0SE11,3S780,3
2017-04-11 18:00:0022,445,31015,807,1S15,0S4131,1
2017-04-11 17:00:0022,748,81016,009,1S17,4S5612,4
2017-04-11 16:00:0023,444,71016,5010,5S21,1S6873,9
2017-04-11 15:00:0023,740,61017,2012,0S22,2S7725,0
2017-04-11 14:00:0024,235,41017,7013,5S25,9SE7865,4
2017-04-11 13:00:0023,439,81018,3013,7SE25,9SE7414,8
2017-04-11 12:00:0022,844,61019,009,4SE22,5SE6483,5
2017-04-11 11:00:0021,147,81019,407,9E16,1SE5062,1
2017-04-11 10:00:0018,361,01019,105,9E12,5E3360,9
2017-04-11 09:00:0013,579,71019,303,6NE7,7NE1660,2
2017-04-11 08:00:0010,991,31019,103,8E9,7E320,0
2017-04-11 07:00:0011,091,91018,602,6E5,8E00
2017-04-11 06:00:0011,392,01018,403,4E8,0E00
2017-04-11 05:00:0011,791,21018,301,5E5,1NE00
2017-04-11 04:00:0012,390,01018,202,6E5,4E-10
2017-04-11 03:00:0012,987,01018,202,5E5,3NE-10
2017-04-11 02:00:0013,983,51018,202,4E7,1NE-10
2017-04-11 01:00:0014,582,11018,104,2NE10,2NE-10
2017-04-11 00:00:0015,480,11017,903,3N7,7N00
2017-04-10 23:00:0016,775,71017,404,9E14,1E-10
2017-04-10 22:00:0017,772,01016,6010,3SE21,7SE-10
2017-04-10 21:00:0017,972,51015,6010,6SE23,3SE00
2017-04-10 20:00:0019,460,11014,807,1SE19,1SE230,0
2017-04-10 19:00:0020,155,71015,1011,1E26,6E640,2
2017-04-10 18:00:0022,048,71015,4016,3SE31,3SE3431,0
2017-04-10 17:00:0022,746,61015,9015,3SE30,1SE5182,2
2017-04-10 16:00:0022,646,91016,5017,6SE38,5E5543,2
2017-04-10 15:00:0022,645,81017,1018,4SE32,7SE6904,4
2017-04-10 14:00:0022,046,91017,6018,2SE36,6SE6124,3
2017-04-10 13:00:0022,346,11018,0016,6SE30,3SE7334,5
2017-04-10 12:00:0021,346,61017,6019,2SE36,0SE6593,5
2017-04-10 11:00:0020,547,71017,4017,9SE36,5E5222,2
2017-04-10 10:00:0018,952,21017,1013,8E28,1E3380,9
2017-04-10 09:00:0016,262,81016,7010,3E24,9E2020,2
2017-04-10 08:00:0014,274,11016,2011,0E21,6E510,0
2017-04-10 07:00:0013,977,71016,008,9E16,5E00
2017-04-10 06:00:0014,477,41015,908,3E18,6E-10
2017-04-10 05:00:0014,778,81015,4010,2E21,0SE-10
2017-04-10 04:00:0014,583,81015,4010,0E20,9E-10
2017-04-10 03:00:0014,387,51015,709,2E25,1E-10
2017-04-10 02:00:0014,486,61016,008,4E16,4E-10
2017-04-10 01:00:0014,785,21016,209,6E18,6E00
2017-04-10 00:00:0015,183,71016,208,2E14,3E00
2017-04-09 23:00:0015,680,41016,106,8E12,7E-10
2017-04-09 22:00:0016,479,51015,507,5E14,9SE00
2017-04-09 21:00:0017,076,31014,709,8SE19,6SE00
2017-04-09 20:00:0017,873,21014,1014,5SE30,5E390,0
2017-04-09 19:00:0018,868,91013,9015,0SE28,6E1080,3
2017-04-09 18:00:0019,764,51013,4019,2SE35,0SE3001,0
2017-04-09 17:00:0020,760,01013,7020,3SE37,4SE5072,3
2017-04-09 16:00:0021,057,31014,0023,3SE45,3SE6543,8
2017-04-09 15:00:0020,857,31014,3025,1SE45,8E7505,0
2017-04-09 14:00:0020,360,01014,8024,7SE52,7E7725,4
2017-04-09 13:00:0019,762,51015,0025,0SE52,3SE7495,0
2017-04-09 12:00:0018,865,81015,2026,1SE53,2SE6613,8
2017-04-09 11:00:0018,267,71015,2024,1SE49,1SE5272,3
2017-04-09 10:00:0017,369,81015,0020,5SE38,1SE3641,0
2017-04-09 09:00:0015,673,81014,7016,5E38,8E1830,2
2017-04-09 08:00:0014,978,71014,3013,1E29,6E290,0
2017-04-09 07:00:0014,379,91013,8011,2E21,8E00
2017-04-09 06:00:0013,881,11013,908,7E17,0E-10
2017-04-09 05:00:0013,480,01014,108,3E15,1E00
2017-04-09 04:00:0013,877,41014,409,0E16,0E-10
2017-04-09 03:00:0014,077,11014,708,1E16,9E-10
2017-04-09 02:00:0014,674,71015,0010,6E20,4E-10
2017-04-09 01:00:0014,673,81015,509,3E18,9NE00
2017-04-09 00:00:0014,972,51015,506,8E13,0E-10
2017-04-08 23:00:0015,470,21015,006,1E11,0E-10
2017-04-08 22:00:0016,467,31014,406,4NE14,7E-10
2017-04-08 21:00:0017,563,91013,306,7E18,4E00
2017-04-08 20:00:0018,658,61012,6011,2SE28,2SE140,0
2017-04-08 19:00:0019,654,91012,2017,1SE34,8S520,3
2017-04-08 18:00:0022,345,11012,1015,7SE32,0S4631,4
2017-04-08 17:00:0023,142,21012,5015,9SE30,7S6243,0
2017-04-08 16:00:0023,642,21013,1014,5SE26,7SE7354,5
2017-04-08 15:00:0022,941,11013,7015,5SE26,2SE8105,6
2017-04-08 14:00:0022,642,91014,1015,4SE28,2S8185,9
2017-04-08 13:00:0022,040,91014,6016,6SE33,4E7695,3
2017-04-08 12:00:0021,540,51015,4014,3SE26,9S6794,1
2017-04-08 11:00:0020,637,61015,7014,7E26,9SE5422,5
2017-04-08 10:00:0017,946,91015,7010,0E23,5SE3721,1
2017-04-08 09:00:0013,264,11015,904,9E13,8E1930,2
2017-04-08 08:00:0012,163,51015,503,2NE9,3NE370,0
2017-04-08 07:00:0012,860,41014,705,3NE9,4NE00
2017-04-08 06:00:0013,062,91014,307,3NE16,3NE00
2017-04-08 05:00:0013,465,21014,407,8E14,2E-10
2017-04-08 04:00:0014,062,61014,809,1E15,8E-10
2017-04-08 03:00:0014,064,61015,206,8NE16,1NE-10
2017-04-08 02:00:0014,065,11015,406,0NE12,2NE00
2017-04-08 01:00:0014,264,41015,204,8NE10,0NE-10
2017-04-08 00:00:0015,061,11014,904,3NE12,0NE-10
2017-04-07 23:00:0015,560,61014,604,2NE8,9N-10
2017-04-07 22:00:0016,460,01013,804,8NE10,8E-10
2017-04-07 21:00:0017,855,91012,607,7E18,8SE00
2017-04-07 20:00:0018,951,91011,6013,5SE32,5SE140,0
2017-04-07 19:00:0020,344,31010,7016,3SE34,2E540,3
2017-04-07 18:00:0023,037,21010,0018,1SE30,1SE4471,3
2017-04-07 17:00:0024,731,61010,1016,6SE33,4SE6072,8
2017-04-07 16:00:0025,632,31010,7014,6SE31,5S7184,4
2017-04-07 15:00:0025,534,81011,1013,2S23,0S7975,6
2017-04-07 14:00:0024,736,61011,7013,6S25,9S8096,0
2017-04-07 13:00:0024,433,41012,4014,1SE26,7E7645,3
2017-04-07 12:00:0023,039,01013,0014,0E26,7SE6774,0
2017-04-07 11:00:0021,247,31013,3012,3E23,9E5392,5
2017-04-07 10:00:0018,056,31013,609,6NE22,4E3701,1
2017-04-07 09:00:0013,071,61013,903,0NE7,6NE1910,2
2017-04-07 08:00:0011,277,21013,403,4NE7,2NE340,0
2017-04-07 07:00:0011,679,31012,906,3NE11,6NE00
2017-04-07 06:00:0012,279,61012,907,6E15,3NE00
2017-04-07 05:00:0012,381,61013,208,5E19,5E00
2017-04-07 04:00:0011,785,31013,605,2NE12,5E00
2017-04-07 03:00:0011,785,11013,803,5NE7,6NE00
2017-04-07 02:00:0012,680,81013,703,5NE8,5E-10
2017-04-07 01:00:0013,178,81013,702,9NE7,5NE-10
2017-04-07 00:00:0014,573,41013,801,9NE4,9NE-10
2017-04-06 23:00:0015,968,31013,804,3E10,3E00
2017-04-06 22:00:0016,664,31013,305,3SE13,0SE00
2017-04-06 21:00:0017,161,61012,304,4SE13,2S00
2017-04-06 20:00:0018,357,01011,70,26,8SE13,2SE150,0
2017-04-06 19:00:0019,850,51011,308,7S15,6S550,3
2017-04-06 18:00:0022,545,11011,007,7S19,0S4361,3
2017-04-06 17:00:0022,545,41011,0012,9S22,7SE5992,7
2017-04-06 16:00:0022,847,61011,3012,0S25,7SE7154,3
2017-04-06 15:00:0022,650,41011,7015,7S30,8S7955,4
2017-04-06 14:00:0022,942,01012,4015,9SE30,4SE8065,7
2017-04-06 13:00:0022,247,31013,3012,9S29,3SE7625,1
2017-04-06 12:00:0021,940,91013,8011,9SE23,4SE6743,8
2017-04-06 11:00:0020,737,51014,2010,7E22,2E5392,3
2017-04-06 10:00:0017,949,01014,604,6E9,5SE3701,0
2017-04-06 09:00:0012,464,01014,902,9E8,0E1930,2
2017-04-06 08:00:009,877,71014,902,0E6,9NE330,0
2017-04-06 07:00:0010,475,81014,302,5E4,3E-10
2017-04-06 06:00:0011,868,41014,002,9NE5,8E00
2017-04-06 05:00:0013,164,31013,904,5E9,5E00
2017-04-06 04:00:0014,164,21013,604,6NE8,8NE-10
2017-04-06 03:00:0015,263,51013,406,0E11,4E00
2017-04-06 02:00:0016,059,91013,306,6E16,0E-10
2017-04-06 01:00:0016,554,71012,804,2E12,1E00
2017-04-06 00:00:0018,148,51012,605,0E11,3N00
2017-04-05 23:00:0019,145,51012,605,1NE12,6NE-10
2017-04-05 22:00:0019,545,21012,205,3NE11,9NE-10
2017-04-05 21:00:0021,142,31011,107,1N16,3N00
2017-04-05 20:00:0024,134,41010,809,3N21,2N390,0
2017-04-05 19:00:0025,133,21010,3011,0NE22,7NE870,3
2017-04-05 18:00:0027,129,51010,2014,0NE25,5NE3541,3
2017-04-05 17:00:0027,436,01010,408,0NW24,8NE4402,4
2017-04-05 16:00:0027,641,41011,108,6W20,1SW5493,7
2017-04-05 15:00:0025,042,61012,3012,4SW23,9S7965,5
2017-04-05 14:00:0024,738,31013,2010,4SW21,5SW8005,9
2017-04-05 13:00:0024,538,21014,408,0SW17,4SW7585,2
2017-04-05 12:00:0023,142,91015,204,9SW11,7W6693,9
2017-04-05 11:00:0021,545,81015,702,5S7,5SE5322,4
2017-04-05 10:00:0017,868,01016,501,7E4,8SE3631,0
2017-04-05 09:00:0012,087,81017,001,3E3,4NE1910,2
2017-04-05 08:00:0010,194,21016,702,5E4,7E330,0
2017-04-05 07:00:0010,992,31016,401,9E6,1E00,0
2017-04-05 06:00:0011,790,21016,303,5E8,7E-10
2017-04-05 05:00:0012,288,61016,205,4E11,1E00
2017-04-05 04:00:0011,589,21016,305,2NE11,7E-10
2017-04-05 03:00:0011,487,41016,303,0E7,1N00
2017-04-05 02:00:0012,284,51016,701,5NE4,2NW-10
2017-04-05 01:00:0013,181,31017,002,5E11,0SE-10
2017-04-05 00:00:0014,175,71017,203,3E7,0E00
2017-04-04 23:00:0014,971,41017,001,9E5,1NE-10
2017-04-04 22:00:0016,266,01016,502,6NE8,6NE-10
2017-04-04 21:00:0017,659,31015,502,4E6,5SE00
2017-04-04 20:00:0019,553,11015,104,6SE10,4S120,0
2017-04-04 19:00:0020,951,11014,707,1S17,3S630,2
2017-04-04 18:00:0023,451,71014,809,1S16,7S4361,3
2017-04-04 17:00:0024,450,31015,1010,1SW20,6SW5952,7
2017-04-04 16:00:0023,951,01015,909,0SW16,6SW7074,1
2017-04-04 15:00:0022,253,91016,6011,6SW20,7S7835,2
2017-04-04 14:00:0022,452,51017,2011,8SW20,1SW7915,5
2017-04-04 13:00:0022,349,71017,809,4SW16,5SW7505,0
2017-04-04 12:00:0022,149,81018,405,3S12,7S6623,8
2017-04-04 11:00:0020,849,61018,804,5E9,6E5212,3
2017-04-04 10:00:0018,359,11019,203,6E7,6NE3491,0
2017-04-04 09:00:0013,378,91019,302,6E6,7SE1750,2
2017-04-04 08:00:0011,286,61019,003,6E8,3E260,0
2017-04-04 07:00:0011,586,61018,705,1E12,7E00
2017-04-04 06:00:0011,087,71018,304,1E6,9E-10
2017-04-04 05:00:0012,778,41018,303,5E12,6NE00
2017-04-04 03:00:0014,569,21018,805,0NE15,1NE-10
2017-04-04 02:00:0012,581,01019,206,6NE15,0NE-10
2017-04-04 01:00:0012,679,81019,101,1NE7,8N00
2017-04-04 00:00:0013,676,71019,202,2NE6,7NE-10
2017-04-03 23:00:0014,777,11019,103,0NE6,5NE-10
2017-04-03 22:00:0015,482,51018,403,0NE7,2E00
2017-04-03 21:00:0016,279,71017,701,5N4,3NE00
2017-04-03 20:00:0017,670,91017,204,0SW10,2SW120,0
2017-04-03 19:00:0019,057,51016,907,0SW15,6SW580,3
2017-04-03 18:00:0021,843,61016,809,3SW16,4SW4331,4
2017-04-03 17:00:0022,742,91017,109,4SW16,5S5892,9
2017-04-03 16:00:0023,738,61017,1010,2S21,6S6994,5
2017-04-03 15:00:0022,941,71017,0011,7S21,6SE7735,6
2017-04-03 14:00:0022,644,51017,2011,8S24,9SE7916,0
2017-04-03 13:00:0023,140,61017,6013,8S27,7S7485,3
2017-04-03 12:00:0023,139,91017,906,3E18,2S6333,9
2017-04-03 11:00:0022,340,41018,007,9E17,3E5142,4
2017-04-03 10:00:0019,550,41018,205,5E12,0E3571,0
2017-04-03 09:00:0013,371,21018,305,6NE12,8NE1780,2
2017-04-03 08:00:0010,381,81018,003,3NE7,9NE250,0
2017-04-03 07:00:0011,576,71017,805,4NE10,3NE00
2017-04-03 06:00:0011,678,51017,705,9NE11,1NE00
2017-04-03 05:00:0011,084,71017,503,6N10,6NE00
2017-04-03 04:00:0011,882,71017,405,8N12,8N00
2017-04-03 03:00:0011,085,21017,407,3N14,4N00
2017-04-03 02:00:0011,485,01017,602,8NE9,7N-10
2017-04-03 01:00:0012,580,71017,601,2E11,8S-10
2017-04-03 00:00:0013,276,51017,305,5NW13,3N-10
2017-04-02 23:00:0014,175,31016,907,2NW15,9NW00
2017-04-02 22:00:0015,371,91016,007,9NW19,6NW00
2017-04-02 21:00:0017,265,01015,008,9NW17,9NW00
2017-04-02 20:00:0020,545,61014,506,4N15,0NE110,0
2017-04-02 19:00:0021,938,61014,207,2NE18,4NE610,3
2017-04-02 18:00:0024,847,21014,107,1W17,4SW4301,3
2017-04-02 17:00:0024,049,51014,6010,1SW22,7SW5892,8
2017-04-02 16:00:0024,343,21015,4011,9SW24,8SW7044,3
2017-04-02 15:00:0023,542,21016,3011,9SW21,3SW7815,4
2017-04-02 14:00:0022,843,31017,208,0S19,0SW7875,7
2017-04-02 13:00:0021,941,41018,107,7E16,5SE7465,1
2017-04-02 12:00:0020,346,51018,707,6E15,5NE6603,7
2017-04-02 11:00:0018,154,71019,106,6NE15,1E4792,1
2017-04-02 10:00:0015,962,51019,306,3NE13,3NE2850,8
2017-04-02 09:00:0011,480,01019,804,5NE13,2NE1760,2
2017-04-02 08:00:009,188,21019,603,1NE7,3N190,0
2017-04-02 07:00:009,387,31019,403,7N7,5N-10
2017-04-02 06:00:009,885,81019,203,8N7,2N00
2017-04-02 05:00:0010,284,61019,403,8N7,7N-10
2017-04-02 04:00:0010,184,51019,904,6N9,8N00
2017-04-02 03:00:0010,084,11020,503,6N9,8N00
2017-04-02 02:00:0010,082,71020,701,4W5,7SW00
2017-04-02 01:00:0010,679,81020,802,0NW6,2N00
2017-04-02 00:00:0011,377,41020,804,3NW11,8NW00
2017-04-01 23:00:0012,175,81020,807,3NW14,0NW00
2017-04-01 22:00:0012,875,01020,608,4NW17,2NW00
2017-04-01 21:00:0013,873,11020,0011,9NW27,0NW00
2017-04-01 20:00:0015,269,91019,6015,1NW32,8NW180,0
2017-04-01 19:00:0017,065,41019,2017,1NW35,1N860,2
2017-04-01 18:00:0019,157,21018,9017,8NW35,7N3591,2
2017-04-01 17:00:0021,052,11019,2013,3NW29,6NW5022,5
2017-04-01 16:00:0020,655,11020,2012,0SW24,8SW5793,7
2017-04-01 15:00:0020,453,81021,0011,3SW22,3SW6764,8
2017-04-01 14:00:0020,148,51021,705,9S13,8SW6374,7
2017-04-01 13:00:0019,744,91022,606,9N16,8N7254,8
2017-04-01 12:00:0018,547,91023,4010,9N19,8N6423,6
2017-04-01 11:00:0017,558,81023,708,1NE16,6NE5172,2
2017-04-01 10:00:0015,674,21023,904,6E15,0NE3270,9
2017-04-01 09:00:0011,095,21023,701,3E5,3E1580,1
2017-04-01 08:00:009,696,11022,901,7N5,5NW190
2017-04-01 07:00:0010,094,91022,402,5N7,4N00
2017-04-01 06:00:0010,592,61022,201,8N8,3N00
2017-04-01 05:00:0011,390,61022,006,2NW16,0NW00
2017-04-01 04:00:0011,888,71022,308,2NW16,1NW00
2017-04-01 03:00:0012,386,71022,608,0NW17,7NW00
2017-04-01 02:00:0011,889,11022,607,5NW19,9W00
2017-04-01 01:00:0012,088,31022,705,5NW12,8N00
2017-04-01 00:00:0012,785,11022,505,1NW15,0N00
2017-03-31 23:00:0012,985,01022,106,7NW16,3NW00
2017-03-31 22:00:0013,382,41021,406,4NW14,0NW00
2017-03-31 21:00:0014,077,31020,408,8NW17,9NW00
2017-03-31 20:00:0015,466,01019,7011,3NW26,9NW170,0
2017-03-31 19:00:0017,353,51019,1011,0NW22,3NW870,2
2017-03-31 18:00:0020,044,71018,7012,0NW24,8NW4281,1
2017-03-31 17:00:0021,744,11018,8011,2NW27,6N5842,5
2017-03-31 16:00:0022,045,51019,2012,2NW29,7NW6953,9
2017-03-31 15:00:0022,547,91019,7011,1NW21,7W7504,8
2017-03-31 14:00:0022,450,41020,409,1W21,0W7805,2
2017-03-31 13:00:0021,954,61021,109,0W19,7W6794,5
2017-03-31 09:00:0011,797,21021,602,4E11,9E1730,1
2017-03-31 08:00:0011,197,51021,201,6E3,7E190
2017-03-31 07:00:0011,796,61020,700,8NE3,3NW00
2017-03-31 06:00:0012,695,51020,102,3NW12,0NW-10
2017-03-31 05:00:0013,393,61019,905,2NW14,8NW00
2017-03-31 04:00:0013,588,21020,107,1NW14,9NW00
2017-03-31 03:00:0013,379,61020,407,3NW17,4NW00
2017-03-31 02:00:0013,089,91020,502,4NW9,5NW00
2017-03-31 01:00:0013,792,91020,402,6NW12,8NW00
2017-03-31 00:00:0014,289,91020,403,4NW7,7N00
2017-03-30 23:00:0014,684,81020,001,9NW7,1W00
2017-03-30 22:00:0015,287,91019,502,8W9,1W00
2017-03-30 21:00:0015,689,81018,704,0SW11,3W-10
2017-03-30 20:00:0016,585,71018,304,0SW9,2S170,0
2017-03-30 19:00:0017,780,71017,906,1SW12,1S780,2
2017-03-30 18:00:0020,071,21017,608,4S17,6SE3741,0
2017-03-30 17:00:0020,668,01017,6011,1S20,1SW5162,3
2017-03-30 16:00:0021,064,81017,7011,8S19,6S6353,6
2017-03-30 15:00:0021,060,21018,0012,3SE21,8SE7134,7
2017-03-30 14:00:0020,757,11018,2013,5SE26,3SE7064,9
2017-03-30 13:00:0020,354,11018,6013,9SE24,1E6754,5
2017-03-30 12:00:0019,852,01019,0014,6SE30,3SE5493,1
2017-03-30 11:00:0019,051,31019,2013,1SE26,4SE4311,9
2017-03-30 10:00:0017,059,11019,404,6NE9,2E2690,7
2017-03-30 09:00:0012,871,91019,604,8NE10,0NE830,1
2017-03-30 08:00:0011,478,11019,404,6NE10,7NE120
2017-03-30 07:00:0010,483,81019,504,6NE10,3NE00
2017-03-30 06:00:0010,586,41019,503,5NE7,7NE00
2017-03-30 05:00:0010,483,91019,903,4NE13,0NE00
2017-03-30 04:00:0010,288,11020,502,8NE7,4NE-10
2017-03-30 03:00:0010,688,51020,902,1E5,4E00
2017-03-30 02:00:0011,087,41020,902,4E6,1NE00
2017-03-30 01:00:0011,685,41020,902,0NE5,2E-10
2017-03-30 00:00:0012,580,51021,002,2E9,5E-10